Index of /mirror/wikimedia.org/dumps/dewiki/20210701

[ICO]NameLast modifiedSize

[PARENTDIR]Parent Directory  -
[ARC]dewiki-20210701-abstract.xml.gz2021-07-02 23:11 331M
[ARC]dewiki-20210701-abstract1.xml.gz2021-07-02 22:48 83M
[ARC]dewiki-20210701-abstract2.xml.gz2021-07-02 22:11 44M
[ARC]dewiki-20210701-abstract3.xml.gz2021-07-02 22:26 43M
[ARC]dewiki-20210701-abstract4.xml.gz2021-07-02 23:05 48M
[ARC]dewiki-20210701-abstract5.xml.gz2021-07-02 22:30 52M
[ARC]dewiki-20210701-abstract6.xml.gz2021-07-02 23:11 61M
[ARC]dewiki-20210701-all-titles-in-ns0.gz2021-07-02 19:28 23M
[ARC]dewiki-20210701-all-titles.gz2021-07-02 19:28 42M
[ARC]dewiki-20210701-babel.sql.gz2021-07-01 20:54 13K
[ARC]dewiki-20210701-category.sql.gz2021-07-01 18:58 5.7M
[ARC]dewiki-20210701-categorylinks.sql.gz2021-07-01 18:49 332M
[ARC]dewiki-20210701-change_tag.sql.gz2021-07-01 19:04 108M
[ARC]dewiki-20210701-change_tag_def.sql.gz2021-07-01 19:05 1.5K
[ARC]dewiki-20210701-externallinks.sql.gz2021-07-01 18:55 948M
[ARC]dewiki-20210701-flaggedimages.sql.gz2021-07-01 19:51 23G
[ARC]dewiki-20210701-flaggedpage_config.sql.gz2021-07-01 20:13 826
[ARC]dewiki-20210701-flaggedpage_pending.sql.gz2021-07-01 20:13 192K
[ARC]dewiki-20210701-flaggedpages.sql.gz2021-07-01 19:05 35M
[ARC]dewiki-20210701-flaggedrevs.sql.gz2021-07-01 19:10 1.4G
[ARC]dewiki-20210701-flaggedrevs_promote.sql.gz2021-07-01 20:14 27M
[ARC]dewiki-20210701-flaggedrevs_statistics.sql.gz2021-07-01 20:14 7.3M
[ARC]dewiki-20210701-flaggedrevs_tracking.sql.gz2021-07-01 20:14 303K
[ARC]dewiki-20210701-flaggedtemplates.sql.gz2021-07-01 20:47 9.4G
[ARC]dewiki-20210701-geo_tags.sql.gz2021-07-01 19:03 39M
[ARC]dewiki-20210701-image.sql.gz2021-07-01 18:41 15M
[ARC]dewiki-20210701-imagelinks.sql.gz2021-07-01 18:50 112M
[ARC]dewiki-20210701-iwlinks.sql.gz2021-07-01 19:02 35M
[ARC]dewiki-20210701-langlinks.sql.gz2021-07-01 18:57 240M
[   ]dewiki-20210701-md5sums.json2021-07-04 13:48 39K
[TXT]dewiki-20210701-md5sums.txt2021-07-04 13:48 37K
[ARC]dewiki-20210701-page.sql.gz2021-07-01 19:00 267M
[ARC]dewiki-20210701-page_props.sql.gz2021-07-01 19:01 76M
[ARC]dewiki-20210701-page_restrictions.sql.gz2021-07-01 19:00 1.6M
[ARC]dewiki-20210701-pagelinks.sql.gz2021-07-01 18:46 1.0G
[ARC]dewiki-20210701-pages-articles-multistream-index.txt.bz22021-07-02 03:35 50M
[ARC]dewiki-20210701-pages-articles-multistream-index1.txt-p1p297012.bz22021-07-02 02:59 1.3M
[ARC]dewiki-20210701-pages-articles-multistream-index2.txt-p297013p1262093.bz22021-07-02 03:02 3.7M
[ARC]dewiki-20210701-pages-articles-multistream-index3.txt-p1262094p2762093.bz22021-07-02 03:01 5.0M
[ARC]dewiki-20210701-pages-articles-multistream-index3.txt-p2762094p3376257.bz22021-07-02 02:54 2.1M
[ARC]dewiki-20210701-pages-articles-multistream-index4.txt-p3376258p4876257.bz22021-07-02 03:01 5.3M
[ARC]dewiki-20210701-pages-articles-multistream-index4.txt-p4876258p6115464.bz22021-07-02 03:00 4.6M
[ARC]dewiki-20210701-pages-articles-multistream-index5.txt-p6115465p7615464.bz22021-07-02 03:16 6.7M
[ARC]dewiki-20210701-pages-articles-multistream-index5.txt-p7615465p9115464.bz22021-07-02 03:18 7.1M
[ARC]dewiki-20210701-pages-articles-multistream-index5.txt-p9115465p9261244.bz22021-07-02 03:02 364K
[ARC]dewiki-20210701-pages-articles-multistream-index6.txt-p9261245p10761244.bz22021-07-02 03:20 7.5M
[ARC]dewiki-20210701-pages-articles-multistream-index6.txt-p10761245p11838254.bz22021-07-02 03:15 5.9M
[ARC]dewiki-20210701-pages-articles-multistream.xml.bz22021-07-02 03:34 5.8G
[ARC]dewiki-20210701-pages-articles-multistream1.xml-p1p297012.bz22021-07-02 02:59 511M
[ARC]dewiki-20210701-pages-articles-multistream2.xml-p297013p1262093.bz22021-07-02 03:02 653M
[ARC]dewiki-20210701-pages-articles-multistream3.xml-p1262094p2762093.bz22021-07-02 03:01 608M
[ARC]dewiki-20210701-pages-articles-multistream3.xml-p2762094p3376257.bz22021-07-02 02:54 244M
[ARC]dewiki-20210701-pages-articles-multistream4.xml-p3376258p4876257.bz22021-07-02 03:01 601M
[ARC]dewiki-20210701-pages-articles-multistream4.xml-p4876258p6115464.bz22021-07-02 03:00 496M
[ARC]dewiki-20210701-pages-articles-multistream5.xml-p6115465p7615464.bz22021-07-02 03:16 669M
[ARC]dewiki-20210701-pages-articles-multistream5.xml-p7615465p9115464.bz22021-07-02 03:18 770M
[ARC]dewiki-20210701-pages-articles-multistream5.xml-p9115465p9261244.bz22021-07-02 03:02 35M
[ARC]dewiki-20210701-pages-articles-multistream6.xml-p9261245p10761244.bz22021-07-02 03:20 815M
[ARC]dewiki-20210701-pages-articles-multistream6.xml-p10761245p11838254.bz22021-07-02 03:15 585M
[ARC]dewiki-20210701-pages-articles.xml.bz22021-07-01 22:45 5.6G
[ARC]dewiki-20210701-pages-articles1.xml-p1p297012.bz22021-07-01 21:54 506M
[ARC]dewiki-20210701-pages-articles2.xml-p297013p1262093.bz22021-07-01 21:57 637M
[ARC]dewiki-20210701-pages-articles3.xml-p1262094p2762093.bz22021-07-01 21:56 583M
[ARC]dewiki-20210701-pages-articles3.xml-p2762094p3376257.bz22021-07-01 21:48 233M
[ARC]dewiki-20210701-pages-articles4.xml-p3376258p4876257.bz22021-07-01 21:56 573M
[ARC]dewiki-20210701-pages-articles4.xml-p4876258p6115464.bz22021-07-01 21:54 473M
[ARC]dewiki-20210701-pages-articles5.xml-p6115465p7615464.bz22021-07-01 22:10 635M
[ARC]dewiki-20210701-pages-articles5.xml-p7615465p9115464.bz22021-07-01 22:12 736M
[ARC]dewiki-20210701-pages-articles5.xml-p9115465p9261244.bz22021-07-01 21:58 34M
[ARC]dewiki-20210701-pages-articles6.xml-p9261245p10761244.bz22021-07-01 22:13 779M
[ARC]dewiki-20210701-pages-articles6.xml-p10761245p11838254.bz22021-07-01 22:10 555M
[ARC]dewiki-20210701-pages-logging.xml.gz2021-07-02 23:40 4.2G
[ARC]dewiki-20210701-pages-logging1.xml.gz2021-07-02 23:33 700M
[ARC]dewiki-20210701-pages-logging2.xml.gz2021-07-02 23:36 785M
[ARC]dewiki-20210701-pages-logging3.xml.gz2021-07-02 23:37 867M
[ARC]dewiki-20210701-pages-logging4.xml.gz2021-07-02 23:27 517M
[ARC]dewiki-20210701-pages-logging5.xml.gz2021-07-02 23:28 560M
[ARC]dewiki-20210701-pages-logging6.xml.gz2021-07-02 23:37 899M
[ARC]dewiki-20210701-pages-meta-current.xml.bz22021-07-02 10:17 8.4G
[ARC]dewiki-20210701-pages-meta-current1.xml-p1p297012.bz22021-07-02 09:02 608M
[ARC]dewiki-20210701-pages-meta-current2.xml-p297013p1262093.bz22021-07-02 09:08 899M
[ARC]dewiki-20210701-pages-meta-current3.xml-p1262094p2762093.bz22021-07-02 09:09 911M
[ARC]dewiki-20210701-pages-meta-current3.xml-p2762094p3376257.bz22021-07-02 08:58 376M
[ARC]dewiki-20210701-pages-meta-current4.xml-p3376258p4876257.bz22021-07-02 09:10 937M
[ARC]dewiki-20210701-pages-meta-current4.xml-p4876258p6115464.bz22021-07-02 09:07 774M
[ARC]dewiki-20210701-pages-meta-current5.xml-p6115465p7615464.bz22021-07-02 09:30 1.0G
[ARC]dewiki-20210701-pages-meta-current5.xml-p7615465p9115464.bz22021-07-02 09:34 1.1G
[ARC]dewiki-20210701-pages-meta-current5.xml-p9115465p9261244.bz22021-07-02 09:12 65M
[ARC]dewiki-20210701-pages-meta-current6.xml-p9261245p10761244.bz22021-07-02 09:35 1.1G
[ARC]dewiki-20210701-pages-meta-current6.xml-p10761245p11838255.bz22021-07-02 09:28 790M
[CMP]dewiki-20210701-pages-meta-history1.xml-p1p1613.7z2021-07-04 05:50 185M
[ARC]dewiki-20210701-pages-meta-history1.xml-p1p1613.bz22021-07-03 01:08 2.3G
[CMP]dewiki-20210701-pages-meta-history1.xml-p1614p3287.7z2021-07-04 05:50 178M
[ARC]dewiki-20210701-pages-meta-history1.xml-p1614p3287.bz22021-07-03 01:05 2.1G
[CMP]dewiki-20210701-pages-meta-history1.xml-p3288p5269.7z2021-07-04 05:49 181M
[ARC]dewiki-20210701-pages-meta-history1.xml-p3288p5269.bz22021-07-03 01:14 2.0G
[CMP]dewiki-20210701-pages-meta-history1.xml-p5270p6254.7z2021-07-04 05:50 162M
[ARC]dewiki-20210701-pages-meta-history1.xml-p5270p6254.bz22021-07-03 01:15 1.9G
[CMP]dewiki-20210701-pages-meta-history1.xml-p6255p9313.7z2021-07-04 05:50 191M
[ARC]dewiki-20210701-pages-meta-history1.xml-p6255p9313.bz22021-07-03 01:17 1.9G
[CMP]dewiki-20210701-pages-meta-history1.xml-p9314p12184.7z2021-07-04 05:47 192M
[ARC]dewiki-20210701-pages-meta-history1.xml-p9314p12184.bz22021-07-03 01:14 2.0G
[CMP]dewiki-20210701-pages-meta-history1.xml-p12185p15377.7z2021-07-04 06:10 198M
[ARC]dewiki-20210701-pages-meta-history1.xml-p12185p15377.bz22021-07-03 02:09 1.8G
[CMP]dewiki-20210701-pages-meta-history1.xml-p15378p18479.7z2021-07-04 06:15 199M
[ARC]dewiki-20210701-pages-meta-history1.xml-p15378p18479.bz22021-07-03 02:09 1.9G
[CMP]dewiki-20210701-pages-meta-history1.xml-p18480p23148.7z2021-07-04 06:16 214M
[ARC]dewiki-20210701-pages-meta-history1.xml-p18480p23148.bz22021-07-03 02:10 1.9G
[CMP]dewiki-20210701-pages-meta-history1.xml-p23149p30116.7z2021-07-04 06:15 236M
[ARC]dewiki-20210701-pages-meta-history1.xml-p23149p30116.bz22021-07-03 02:09 1.8G
[CMP]dewiki-20210701-pages-meta-history1.xml-p30117p35304.7z2021-07-04 06:16 221M
[ARC]dewiki-20210701-pages-meta-history1.xml-p30117p35304.bz22021-07-03 02:11 2.3G
[CMP]dewiki-20210701-pages-meta-history1.xml-p35305p43317.7z2021-07-04 06:11 239M
[ARC]dewiki-20210701-pages-meta-history1.xml-p35305p43317.bz22021-07-03 02:09 1.7G
[CMP]dewiki-20210701-pages-meta-history1.xml-p43318p51144.7z2021-07-04 06:40 237M
[ARC]dewiki-20210701-pages-meta-history1.xml-p43318p51144.bz22021-07-03 03:05 2.1G
[CMP]dewiki-20210701-pages-meta-history1.xml-p51145p60034.7z2021-07-04 06:39 241M
[ARC]dewiki-20210701-pages-meta-history1.xml-p51145p60034.bz22021-07-03 03:03 1.7G
[CMP]dewiki-20210701-pages-meta-history1.xml-p60035p71891.7z2021-07-04 06:33 249M
[ARC]dewiki-20210701-pages-meta-history1.xml-p60035p71891.bz22021-07-03 03:04 1.9G
[CMP]dewiki-20210701-pages-meta-history1.xml-p71892p82254.7z2021-07-04 06:39 253M
[ARC]dewiki-20210701-pages-meta-history1.xml-p71892p82254.bz22021-07-03 03:03 1.7G
[CMP]dewiki-20210701-pages-meta-history1.xml-p82255p95110.7z2021-07-04 06:37 256M
[ARC]dewiki-20210701-pages-meta-history1.xml-p82255p95110.bz22021-07-03 03:01 1.6G
[CMP]dewiki-20210701-pages-meta-history1.xml-p95111p108953.7z2021-07-04 06:37 259M
[ARC]dewiki-20210701-pages-meta-history1.xml-p95111p108953.bz22021-07-03 03:00 1.6G
[CMP]dewiki-20210701-pages-meta-history1.xml-p108954p124391.7z2021-07-04 06:57 258M
[ARC]dewiki-20210701-pages-meta-history1.xml-p108954p124391.bz22021-07-03 03:52 1.6G
[CMP]dewiki-20210701-pages-meta-history1.xml-p124392p139248.7z2021-07-04 06:59 252M
[ARC]dewiki-20210701-pages-meta-history1.xml-p124392p139248.bz22021-07-03 03:51 1.5G
[CMP]dewiki-20210701-pages-meta-history1.xml-p139249p155102.7z2021-07-04 06:58 254M
[ARC]dewiki-20210701-pages-meta-history1.xml-p139249p155102.bz22021-07-03 03:49 1.4G
[CMP]dewiki-20210701-pages-meta-history1.xml-p155103p172183.7z2021-07-04 06:57 250M
[ARC]dewiki-20210701-pages-meta-history1.xml-p155103p172183.bz22021-07-03 03:46 1.3G
[CMP]dewiki-20210701-pages-meta-history1.xml-p172184p191826.7z2021-07-04 06:57 259M
[ARC]dewiki-20210701-pages-meta-history1.xml-p172184p191826.bz22021-07-03 03:49 1.6G
[CMP]dewiki-20210701-pages-meta-history1.xml-p191827p212610.7z2021-07-04 06:56 264M
[ARC]dewiki-20210701-pages-meta-history1.xml-p191827p212610.bz22021-07-03 03:48 1.5G
[CMP]dewiki-20210701-pages-meta-history1.xml-p212611p234319.7z2021-07-04 07:16 252M
[ARC]dewiki-20210701-pages-meta-history1.xml-p212611p234319.bz22021-07-03 04:35 1.4G
[CMP]dewiki-20210701-pages-meta-history1.xml-p234320p257639.7z2021-07-04 07:13 236M
[ARC]dewiki-20210701-pages-meta-history1.xml-p234320p257639.bz22021-07-03 04:26 1.1G
[CMP]dewiki-20210701-pages-meta-history1.xml-p257640p281911.7z2021-07-04 07:16 268M
[ARC]dewiki-20210701-pages-meta-history1.xml-p257640p281911.bz22021-07-03 04:32 1.6G
[CMP]dewiki-20210701-pages-meta-history1.xml-p281912p297012.7z2021-07-04 07:11 157M
[ARC]dewiki-20210701-pages-meta-history1.xml-p281912p297012.bz22021-07-03 04:19 819M
[CMP]dewiki-20210701-pages-meta-history2.xml-p297013p323683.7z2021-07-04 07:15 263M
[ARC]dewiki-20210701-pages-meta-history2.xml-p297013p323683.bz22021-07-03 04:23 1.4G
[CMP]dewiki-20210701-pages-meta-history2.xml-p323684p350754.7z2021-07-04 07:12 241M
[ARC]dewiki-20210701-pages-meta-history2.xml-p323684p350754.bz22021-07-03 04:26 1.1G
[CMP]dewiki-20210701-pages-meta-history2.xml-p350755p381093.7z2021-07-04 07:28 251M
[ARC]dewiki-20210701-pages-meta-history2.xml-p350755p381093.bz22021-07-03 05:09 1.2G
[CMP]dewiki-20210701-pages-meta-history2.xml-p381094p413698.7z2021-07-04 07:28 245M
[ARC]dewiki-20210701-pages-meta-history2.xml-p381094p413698.bz22021-07-03 05:07 1.1G
[CMP]dewiki-20210701-pages-meta-history2.xml-p413699p446258.7z2021-07-04 07:29 252M
[ARC]dewiki-20210701-pages-meta-history2.xml-p413699p446258.bz22021-07-03 05:09 1.2G
[CMP]dewiki-20210701-pages-meta-history2.xml-p446259p475180.7z2021-07-04 07:31 270M
[ARC]dewiki-20210701-pages-meta-history2.xml-p446259p475180.bz22021-07-03 05:17 1.7G
[CMP]dewiki-20210701-pages-meta-history2.xml-p475181p505423.7z2021-07-04 07:28 240M
[ARC]dewiki-20210701-pages-meta-history2.xml-p475181p505423.bz22021-07-03 05:13 1.2G
[CMP]dewiki-20210701-pages-meta-history2.xml-p505424p545928.7z2021-07-04 07:26 238M
[ARC]dewiki-20210701-pages-meta-history2.xml-p505424p545928.bz22021-07-03 05:05 968M
[CMP]dewiki-20210701-pages-meta-history2.xml-p545929p586723.7z2021-07-04 07:41 246M
[ARC]dewiki-20210701-pages-meta-history2.xml-p545929p586723.bz22021-07-03 05:47 1.0G
[CMP]dewiki-20210701-pages-meta-history2.xml-p586724p624126.7z2021-07-04 07:47 294M
[ARC]dewiki-20210701-pages-meta-history2.xml-p586724p624126.bz22021-07-03 06:03 2.1G
[CMP]dewiki-20210701-pages-meta-history2.xml-p624127p668715.7z2021-07-04 07:43 256M
[ARC]dewiki-20210701-pages-meta-history2.xml-p624127p668715.bz22021-07-03 05:56 1.3G
[CMP]dewiki-20210701-pages-meta-history2.xml-p668716p700153.7z2021-07-04 07:47 274M
[ARC]dewiki-20210701-pages-meta-history2.xml-p668716p700153.bz22021-07-03 06:05 2.2G
[CMP]dewiki-20210701-pages-meta-history2.xml-p700154p737474.7z2021-07-04 07:45 259M
[ARC]dewiki-20210701-pages-meta-history2.xml-p700154p737474.bz22021-07-03 06:03 1.5G
[CMP]dewiki-20210701-pages-meta-history2.xml-p737475p779952.7z2021-07-04 07:43 261M
[ARC]dewiki-20210701-pages-meta-history2.xml-p737475p779952.bz22021-07-03 05:56 1.4G
[CMP]dewiki-20210701-pages-meta-history2.xml-p779953p823086.7z2021-07-04 08:00 272M
[ARC]dewiki-20210701-pages-meta-history2.xml-p779953p823086.bz22021-07-03 06:43 1.5G
[CMP]dewiki-20210701-pages-meta-history2.xml-p823087p863796.7z2021-07-04 08:01 295M
[ARC]dewiki-20210701-pages-meta-history2.xml-p823087p863796.bz22021-07-03 06:48 2.0G
[CMP]dewiki-20210701-pages-meta-history2.xml-p863797p911660.7z2021-07-04 08:02 316M
[ARC]dewiki-20210701-pages-meta-history2.xml-p863797p911660.bz22021-07-03 06:52 2.3G
[CMP]dewiki-20210701-pages-meta-history2.xml-p911661p964752.7z2021-07-04 07:58 262M
[ARC]dewiki-20210701-pages-meta-history2.xml-p911661p964752.bz22021-07-03 06:42 1.3G
[CMP]dewiki-20210701-pages-meta-history2.xml-p964753p1012527.7z2021-07-04 07:58 257M
[ARC]dewiki-20210701-pages-meta-history2.xml-p964753p1012527.bz22021-07-03 06:39 1.2G
[CMP]dewiki-20210701-pages-meta-history2.xml-p1012528p1064200.7z2021-07-04 08:03 312M
[ARC]dewiki-20210701-pages-meta-history2.xml-p1012528p1064200.bz22021-07-03 06:54 2.3G
[CMP]dewiki-20210701-pages-meta-history2.xml-p1064201p1127599.7z2021-07-04 08:14 275M
[ARC]dewiki-20210701-pages-meta-history2.xml-p1064201p1127599.bz22021-07-03 07:32 1.5G
[CMP]dewiki-20210701-pages-meta-history2.xml-p1127600p1183907.7z2021-07-04 08:15 287M
[ARC]dewiki-20210701-pages-meta-history2.xml-p1127600p1183907.bz22021-07-03 07:35 1.7G
[CMP]dewiki-20210701-pages-meta-history2.xml-p1183908p1242051.7z2021-07-04 08:17 319M
[ARC]dewiki-20210701-pages-meta-history2.xml-p1183908p1242051.bz22021-07-03 07:42 2.5G
[CMP]dewiki-20210701-pages-meta-history2.xml-p1242052p1262093.7z2021-07-04 08:06 90M
[ARC]dewiki-20210701-pages-meta-history2.xml-p1242052p1262093.bz22021-07-03 07:13 468M
[CMP]dewiki-20210701-pages-meta-history3.xml-p1262094p1322522.7z2021-07-04 08:14 279M
[ARC]dewiki-20210701-pages-meta-history3.xml-p1262094p1322522.bz22021-07-03 07:25 1.6G
[CMP]dewiki-20210701-pages-meta-history3.xml-p1322523p1384392.7z2021-07-04 08:16 363M
[ARC]dewiki-20210701-pages-meta-history3.xml-p1322523p1384392.bz22021-07-03 07:37 2.0G
[CMP]dewiki-20210701-pages-meta-history3.xml-p1384393p1448510.7z2021-07-04 08:30 311M
[ARC]dewiki-20210701-pages-meta-history3.xml-p1384393p1448510.bz22021-07-03 08:19 2.0G
[CMP]dewiki-20210701-pages-meta-history3.xml-p1448511p1519304.7z2021-07-04 08:30 336M
[ARC]dewiki-20210701-pages-meta-history3.xml-p1448511p1519304.bz22021-07-03 08:28 1.9G
[CMP]dewiki-20210701-pages-meta-history3.xml-p1519305p1591506.7z2021-07-04 08:29 287M
[ARC]dewiki-20210701-pages-meta-history3.xml-p1519305p1591506.bz22021-07-03 08:23 1.6G
[CMP]dewiki-20210701-pages-meta-history3.xml-p1591507p1661627.7z2021-07-04 08:33 325M
[ARC]dewiki-20210701-pages-meta-history3.xml-p1591507p1661627.bz22021-07-03 08:35 2.4G
[CMP]dewiki-20210701-pages-meta-history3.xml-p1661628p1729807.7z2021-07-04 08:28 317M
[ARC]dewiki-20210701-pages-meta-history3.xml-p1661628p1729807.bz22021-07-03 08:23 1.7G
[CMP]dewiki-20210701-pages-meta-history3.xml-p1729808p1804501.7z2021-07-04 08:31 309M
[ARC]dewiki-20210701-pages-meta-history3.xml-p1729808p1804501.bz22021-07-03 08:29 2.0G
[CMP]dewiki-20210701-pages-meta-history3.xml-p1804502p1884034.7z2021-07-04 08:45 326M
[ARC]dewiki-20210701-pages-meta-history3.xml-p1804502p1884034.bz22021-07-03 09:14 1.6G
[CMP]dewiki-20210701-pages-meta-history3.xml-p1884035p1968311.7z2021-07-04 08:49 345M
[ARC]dewiki-20210701-pages-meta-history3.xml-p1884035p1968311.bz22021-07-03 09:25 2.7G
[CMP]dewiki-20210701-pages-meta-history3.xml-p1968312p2083034.7z2021-07-04 08:43 266M
[ARC]dewiki-20210701-pages-meta-history3.xml-p1968312p2083034.bz22021-07-03 09:09 1.2G
[CMP]dewiki-20210701-pages-meta-history3.xml-p2083035p2170611.7z2021-07-04 08:47 320M
[ARC]dewiki-20210701-pages-meta-history3.xml-p2083035p2170611.bz22021-07-03 09:18 2.1G
[CMP]dewiki-20210701-pages-meta-history3.xml-p2170612p2272194.7z2021-07-04 08:47 319M
[ARC]dewiki-20210701-pages-meta-history3.xml-p2170612p2272194.bz22021-07-03 09:19 1.9G
[CMP]dewiki-20210701-pages-meta-history3.xml-p2272195p2381454.7z2021-07-04 08:47 313M
[ARC]dewiki-20210701-pages-meta-history3.xml-p2272195p2381454.bz22021-07-03 09:20 1.9G
[CMP]dewiki-20210701-pages-meta-history3.xml-p2381455p2501100.7z2021-07-04 09:00 304M
[ARC]dewiki-20210701-pages-meta-history3.xml-p2381455p2501100.bz22021-07-03 10:05 1.7G
[CMP]dewiki-20210701-pages-meta-history3.xml-p2501101p2595015.7z2021-07-04 09:04 318M
[ARC]dewiki-20210701-pages-meta-history3.xml-p2501101p2595015.bz22021-07-03 10:18 2.8G
[CMP]dewiki-20210701-pages-meta-history3.xml-p2595016p2692005.7z2021-07-04 09:03 328M
[ARC]dewiki-20210701-pages-meta-history3.xml-p2595016p2692005.bz22021-07-03 10:16 2.5G
[CMP]dewiki-20210701-pages-meta-history3.xml-p2692006p2782089.7z2021-07-04 09:04 367M
[ARC]dewiki-20210701-pages-meta-history3.xml-p2692006p2782089.bz22021-07-03 10:17 3.1G
[CMP]dewiki-20210701-pages-meta-history3.xml-p2782090p2874951.7z2021-07-04 09:02 311M
[ARC]dewiki-20210701-pages-meta-history3.xml-p2782090p2874951.bz22021-07-03 10:09 1.9G
[CMP]dewiki-20210701-pages-meta-history3.xml-p2874952p2982965.7z2021-07-04 09:02 343M
[ARC]dewiki-20210701-pages-meta-history3.xml-p2874952p2982965.bz22021-07-03 10:08 2.2G
[CMP]dewiki-20210701-pages-meta-history3.xml-p2982966p3081766.7z2021-07-04 09:20 353M
[ARC]dewiki-20210701-pages-meta-history3.xml-p2982966p3081766.bz22021-07-03 11:13 3.0G
[CMP]dewiki-20210701-pages-meta-history3.xml-p3081767p3175653.7z2021-07-04 09:19 328M
[ARC]dewiki-20210701-pages-meta-history3.xml-p3081767p3175653.bz22021-07-03 11:12 2.4G
[CMP]dewiki-20210701-pages-meta-history3.xml-p3175654p3299223.7z2021-07-04 09:17 327M
[ARC]dewiki-20210701-pages-meta-history3.xml-p3175654p3299223.bz22021-07-03 11:04 2.0G
[CMP]dewiki-20210701-pages-meta-history3.xml-p3299224p3376257.7z2021-07-04 09:13 234M
[ARC]dewiki-20210701-pages-meta-history3.xml-p3299224p3376257.bz22021-07-03 10:52 1.3G
[CMP]dewiki-20210701-pages-meta-history4.xml-p3376258p3478905.7z2021-07-04 09:17 321M
[ARC]dewiki-20210701-pages-meta-history4.xml-p3376258p3478905.bz22021-07-03 10:55 1.9G
[CMP]dewiki-20210701-pages-meta-history4.xml-p3478906p3593850.7z2021-07-04 09:17 364M
[ARC]dewiki-20210701-pages-meta-history4.xml-p3478906p3593850.bz22021-07-03 11:04 2.0G
[CMP]dewiki-20210701-pages-meta-history4.xml-p3593851p3701519.7z2021-07-04 09:31 345M
[ARC]dewiki-20210701-pages-meta-history4.xml-p3593851p3701519.bz22021-07-03 11:53 1.5G
[CMP]dewiki-20210701-pages-meta-history4.xml-p3701520p3806993.7z2021-07-04 09:34 343M
[ARC]dewiki-20210701-pages-meta-history4.xml-p3701520p3806993.bz22021-07-03 12:01 2.2G
[CMP]dewiki-20210701-pages-meta-history4.xml-p3806994p3914584.7z2021-07-04 09:34 343M
[ARC]dewiki-20210701-pages-meta-history4.xml-p3806994p3914584.bz22021-07-03 12:05 2.2G
[CMP]dewiki-20210701-pages-meta-history4.xml-p3914585p4039828.7z2021-07-04 09:34 327M
[ARC]dewiki-20210701-pages-meta-history4.xml-p3914585p4039828.bz22021-07-03 12:01 1.9G
[CMP]dewiki-20210701-pages-meta-history4.xml-p4039829p4152097.7z2021-07-04 09:35 354M
[ARC]dewiki-20210701-pages-meta-history4.xml-p4039829p4152097.bz22021-07-03 12:02 2.1G
[CMP]dewiki-20210701-pages-meta-history4.xml-p4152098p4267029.7z2021-07-04 09:35 416M
[ARC]dewiki-20210701-pages-meta-history4.xml-p4152098p4267029.bz22021-07-03 12:08 2.7G
[CMP]dewiki-20210701-pages-meta-history4.xml-p4267030p4330230.7z2021-07-04 09:52 290M
[ARC]dewiki-20210701-pages-meta-history4.xml-p4267030p4330230.bz22021-07-03 13:08 2.9G
[CMP]dewiki-20210701-pages-meta-history4.xml-p4330231p4390947.7z2021-07-04 09:51 358M
[ARC]dewiki-20210701-pages-meta-history4.xml-p4330231p4390947.bz22021-07-03 13:06 3.6G
[CMP]dewiki-20210701-pages-meta-history4.xml-p4390948p4470208.7z2021-07-04 09:49 324M
[ARC]dewiki-20210701-pages-meta-history4.xml-p4390948p4470208.bz22021-07-03 12:58 2.8G
[CMP]dewiki-20210701-pages-meta-history4.xml-p4470209p4570276.7z2021-07-04 09:48 355M
[ARC]dewiki-20210701-pages-meta-history4.xml-p4470209p4570276.bz22021-07-03 12:59 2.0G
[CMP]dewiki-20210701-pages-meta-history4.xml-p4570277p4691098.7z2021-07-04 09:50 382M
[ARC]dewiki-20210701-pages-meta-history4.xml-p4570277p4691098.bz22021-07-03 13:03 2.7G
[CMP]dewiki-20210701-pages-meta-history4.xml-p4691099p4802864.7z2021-07-04 09:50 361M
[ARC]dewiki-20210701-pages-meta-history4.xml-p4691099p4802864.bz22021-07-03 13:05 3.2G
[CMP]dewiki-20210701-pages-meta-history4.xml-p4802865p4928438.7z2021-07-04 10:06 369M
[ARC]dewiki-20210701-pages-meta-history4.xml-p4802865p4928438.bz22021-07-03 14:04 2.9G
[CMP]dewiki-20210701-pages-meta-history4.xml-p4928439p5022484.7z2021-07-04 10:06 354M
[ARC]dewiki-20210701-pages-meta-history4.xml-p4928439p5022484.bz22021-07-03 14:04 3.0G
[CMP]dewiki-20210701-pages-meta-history4.xml-p5022485p5130574.7z2021-07-04 10:07 354M
[ARC]dewiki-20210701-pages-meta-history4.xml-p5022485p5130574.bz22021-07-03 14:05 3.0G
[CMP]dewiki-20210701-pages-meta-history4.xml-p5130575p5268714.7z2021-07-04 10:06 340M
[ARC]dewiki-20210701-pages-meta-history4.xml-p5130575p5268714.bz22021-07-03 14:03 2.3G
[CMP]dewiki-20210701-pages-meta-history4.xml-p5268715p5364557.7z2021-07-04 10:08 339M
[ARC]dewiki-20210701-pages-meta-history4.xml-p5268715p5364557.bz22021-07-03 14:06 2.8G
[CMP]dewiki-20210701-pages-meta-history4.xml-p5364558p5478632.7z2021-07-04 10:06 377M
[ARC]dewiki-20210701-pages-meta-history4.xml-p5364558p5478632.bz22021-07-03 14:04 2.9G
[CMP]dewiki-20210701-pages-meta-history4.xml-p5478633p5596344.7z2021-07-04 10:22 357M
[ARC]dewiki-20210701-pages-meta-history4.xml-p5478633p5596344.bz22021-07-03 14:54 2.3G
[CMP]dewiki-20210701-pages-meta-history4.xml-p5596345p5722163.7z2021-07-04 10:23 359M
[ARC]dewiki-20210701-pages-meta-history4.xml-p5596345p5722163.bz22021-07-03 14:57 2.5G
[CMP]dewiki-20210701-pages-meta-history4.xml-p5722164p5859506.7z2021-07-04 10:23 393M
[ARC]dewiki-20210701-pages-meta-history4.xml-p5722164p5859506.bz22021-07-03 15:00 3.0G
[CMP]dewiki-20210701-pages-meta-history4.xml-p5859507p5958542.7z2021-07-04 10:22 340M
[ARC]dewiki-20210701-pages-meta-history4.xml-p5859507p5958542.bz22021-07-03 15:00 2.6G
[CMP]dewiki-20210701-pages-meta-history4.xml-p5958543p6082328.7z2021-07-04 10:23 378M
[ARC]dewiki-20210701-pages-meta-history4.xml-p5958543p6082328.bz22021-07-03 15:01 2.6G
[CMP]dewiki-20210701-pages-meta-history4.xml-p6082329p6115464.7z2021-07-04 10:13 118M
[ARC]dewiki-20210701-pages-meta-history4.xml-p6082329p6115464.bz22021-07-03 14:32 779M
[CMP]dewiki-20210701-pages-meta-history5.xml-p6115465p6243951.7z2021-07-04 10:38 371M
[ARC]dewiki-20210701-pages-meta-history5.xml-p6115465p6243951.bz22021-07-03 15:45 2.7G
[CMP]dewiki-20210701-pages-meta-history5.xml-p6243952p6336894.7z2021-07-04 10:38 335M
[ARC]dewiki-20210701-pages-meta-history5.xml-p6243952p6336894.bz22021-07-03 15:54 2.7G
[CMP]dewiki-20210701-pages-meta-history5.xml-p6336895p6433791.7z2021-07-04 10:38 344M
[ARC]dewiki-20210701-pages-meta-history5.xml-p6336895p6433791.bz22021-07-03 15:54 2.8G
[CMP]dewiki-20210701-pages-meta-history5.xml-p6433792p6529935.7z2021-07-04 10:53 563M
[ARC]dewiki-20210701-pages-meta-history5.xml-p6433792p6529935.bz22021-07-03 16:43 7.1G
[CMP]dewiki-20210701-pages-meta-history5.xml-p6529936p6612040.7z2021-07-04 10:45 388M
[ARC]dewiki-20210701-pages-meta-history5.xml-p6529936p6612040.bz22021-07-03 16:06 4.2G
[CMP]dewiki-20210701-pages-meta-history5.xml-p6612041p6678851.7z2021-07-04 10:50 514M
[ARC]dewiki-20210701-pages-meta-history5.xml-p6612041p6678851.bz22021-07-03 16:37 6.7G
[CMP]dewiki-20210701-pages-meta-history5.xml-p6678852p6747532.7z2021-07-04 11:09 298M
[ARC]dewiki-20210701-pages-meta-history5.xml-p6678852p6747532.bz22021-07-03 17:33 3.1G
[CMP]dewiki-20210701-pages-meta-history5.xml-p6747533p6864227.7z2021-07-04 11:09 370M
[ARC]dewiki-20210701-pages-meta-history5.xml-p6747533p6864227.bz22021-07-03 17:40 2.6G
[CMP]dewiki-20210701-pages-meta-history5.xml-p6864228p6974528.7z2021-07-04 11:10 350M
[ARC]dewiki-20210701-pages-meta-history5.xml-p6864228p6974528.bz22021-07-03 17:39 2.2G
[CMP]dewiki-20210701-pages-meta-history5.xml-p6974529p7046438.7z2021-07-04 11:09 297M
[ARC]dewiki-20210701-pages-meta-history5.xml-p6974529p7046438.bz22021-07-03 17:38 2.3G
[CMP]dewiki-20210701-pages-meta-history5.xml-p7046439p7076405.7z2021-07-04 11:25 544M
[ARC]dewiki-20210701-pages-meta-history5.xml-p7046439p7076405.bz22021-07-03 18:43 9.7G
[CMP]dewiki-20210701-pages-meta-history5.xml-p7076406p7165993.7z2021-07-04 11:09 341M
[ARC]dewiki-20210701-pages-meta-history5.xml-p7076406p7165993.bz22021-07-03 17:26 1.8G
[CMP]dewiki-20210701-pages-meta-history5.xml-p7165994p7378970.7z2021-07-04 11:36 344M
[ARC]dewiki-20210701-pages-meta-history5.xml-p7165994p7378970.bz22021-07-03 19:15 1.6G
[CMP]dewiki-20210701-pages-meta-history5.xml-p7378971p7517244.7z2021-07-04 11:38 392M
[ARC]dewiki-20210701-pages-meta-history5.xml-p7378971p7517244.bz22021-07-03 19:26 2.0G
[CMP]dewiki-20210701-pages-meta-history5.xml-p7517245p7640638.7z2021-07-04 11:40 373M
[ARC]dewiki-20210701-pages-meta-history5.xml-p7517245p7640638.bz22021-07-03 19:34 2.3G
[CMP]dewiki-20210701-pages-meta-history5.xml-p7640639p7756895.7z2021-07-04 11:39 365M
[ARC]dewiki-20210701-pages-meta-history5.xml-p7640639p7756895.bz22021-07-03 19:36 2.7G
[CMP]dewiki-20210701-pages-meta-history5.xml-p7756896p7888743.7z2021-07-04 11:40 375M
[ARC]dewiki-20210701-pages-meta-history5.xml-p7756896p7888743.bz22021-07-03 19:34 2.1G
[CMP]dewiki-20210701-pages-meta-history5.xml-p7888744p8028550.7z2021-07-04 11:40 412M
[ARC]dewiki-20210701-pages-meta-history5.xml-p7888744p8028550.bz22021-07-03 19:35 2.7G
[CMP]dewiki-20210701-pages-meta-history5.xml-p8028551p8135170.7z2021-07-04 11:55 388M
[ARC]dewiki-20210701-pages-meta-history5.xml-p8028551p8135170.bz22021-07-03 20:32 3.0G
[CMP]dewiki-20210701-pages-meta-history5.xml-p8135171p8269792.7z2021-07-04 11:54 395M
[ARC]dewiki-20210701-pages-meta-history5.xml-p8135171p8269792.bz22021-07-03 20:28 2.2G
[CMP]dewiki-20210701-pages-meta-history5.xml-p8269793p8403654.7z2021-07-04 11:54 399M
[ARC]dewiki-20210701-pages-meta-history5.xml-p8269793p8403654.bz22021-07-03 20:25 2.2G
[CMP]dewiki-20210701-pages-meta-history5.xml-p8403655p8534583.7z2021-07-04 11:54 393M
[ARC]dewiki-20210701-pages-meta-history5.xml-p8403655p8534583.bz22021-07-03 20:27 2.3G
[CMP]dewiki-20210701-pages-meta-history5.xml-p8534584p8749927.7z2021-07-04 11:51 320M
[ARC]dewiki-20210701-pages-meta-history5.xml-p8534584p8749927.bz22021-07-03 20:16 1.5G
[CMP]dewiki-20210701-pages-meta-history5.xml-p8749928p8893894.7z2021-07-04 11:55 397M
[ARC]dewiki-20210701-pages-meta-history5.xml-p8749928p8893894.bz22021-07-03 20:25 2.3G
[CMP]dewiki-20210701-pages-meta-history5.xml-p8893895p9014821.7z2021-07-04 12:10 392M
[ARC]dewiki-20210701-pages-meta-history5.xml-p8893895p9014821.bz22021-07-03 21:26 2.4G
[CMP]dewiki-20210701-pages-meta-history5.xml-p9014822p9082349.7z2021-07-04 12:37 749M
[ARC]dewiki-20210701-pages-meta-history5.xml-p9014822p9082349.bz22021-07-03 23:03 12G
[CMP]dewiki-20210701-pages-meta-history5.xml-p9082350p9197170.7z2021-07-04 12:12 436M
[ARC]dewiki-20210701-pages-meta-history5.xml-p9082350p9197170.bz22021-07-03 21:47 3.9G
[CMP]dewiki-20210701-pages-meta-history5.xml-p9197171p9261244.7z2021-07-04 12:00 102M
[ARC]dewiki-20210701-pages-meta-history5.xml-p9197171p9261244.bz22021-07-03 20:46 592M
[CMP]dewiki-20210701-pages-meta-history6.xml-p9261245p9463056.7z2021-07-04 12:10 425M
[ARC]dewiki-20210701-pages-meta-history6.xml-p9261245p9463056.bz22021-07-03 21:15 2.2G
[CMP]dewiki-20210701-pages-meta-history6.xml-p9463057p9607756.7z2021-07-04 12:10 435M
[ARC]dewiki-20210701-pages-meta-history6.xml-p9463057p9607756.bz22021-07-03 21:27 2.9G
[CMP]dewiki-20210701-pages-meta-history6.xml-p9607757p9672913.7z2021-07-04 12:51 364M
[ARC]dewiki-20210701-pages-meta-history6.xml-p9607757p9672913.bz22021-07-03 23:53 2.4G
[CMP]dewiki-20210701-pages-meta-history6.xml-p9672914p9745287.7z2021-07-04 12:51 343M
[ARC]dewiki-20210701-pages-meta-history6.xml-p9672914p9745287.bz22021-07-03 23:56 2.9G
[CMP]dewiki-20210701-pages-meta-history6.xml-p9745288p9759931.7z2021-07-04 12:51 383M
[ARC]dewiki-20210701-pages-meta-history6.xml-p9745288p9759931.bz22021-07-03 23:54 3.0G
[CMP]dewiki-20210701-pages-meta-history6.xml-p9759932p9931178.7z2021-07-04 12:52 419M
[ARC]dewiki-20210701-pages-meta-history6.xml-p9759932p9931178.bz22021-07-03 23:50 2.1G
[CMP]dewiki-20210701-pages-meta-history6.xml-p9931179p9984638.7z2021-07-04 12:53 558M
[ARC]dewiki-20210701-pages-meta-history6.xml-p9931179p9984638.bz22021-07-03 23:57 3.0G
[CMP]dewiki-20210701-pages-meta-history6.xml-p9984639p10083739.7z2021-07-04 12:52 378M
[ARC]dewiki-20210701-pages-meta-history6.xml-p9984639p10083739.bz22021-07-03 23:55 2.0G
[CMP]dewiki-20210701-pages-meta-history6.xml-p10083740p10250073.7z2021-07-04 13:09 466M
[ARC]dewiki-20210701-pages-meta-history6.xml-p10083740p10250073.bz22021-07-04 00:50 2.5G
[CMP]dewiki-20210701-pages-meta-history6.xml-p10250074p10305182.7z2021-07-04 13:08 448M
[ARC]dewiki-20210701-pages-meta-history6.xml-p10250074p10305182.bz22021-07-04 00:50 2.6G
[CMP]dewiki-20210701-pages-meta-history6.xml-p10305183p10490763.7z2021-07-04 13:08 405M
[ARC]dewiki-20210701-pages-meta-history6.xml-p10305183p10490763.bz22021-07-04 00:44 2.1G
[CMP]dewiki-20210701-pages-meta-history6.xml-p10490764p10685520.7z2021-07-04 13:09 482M
[ARC]dewiki-20210701-pages-meta-history6.xml-p10490764p10685520.bz22021-07-04 00:46 2.4G
[CMP]dewiki-20210701-pages-meta-history6.xml-p10685521p10874013.7z2021-07-04 13:09 455M
[ARC]dewiki-20210701-pages-meta-history6.xml-p10685521p10874013.bz22021-07-04 00:48 2.4G
[CMP]dewiki-20210701-pages-meta-history6.xml-p10874014p11087881.7z2021-07-04 13:06 414M
[ARC]dewiki-20210701-pages-meta-history6.xml-p10874014p11087881.bz22021-07-04 00:41 1.7G
[CMP]dewiki-20210701-pages-meta-history6.xml-p11087882p11219904.7z2021-07-04 13:26 369M
[ARC]dewiki-20210701-pages-meta-history6.xml-p11087882p11219904.bz22021-07-04 01:41 3.2G
[CMP]dewiki-20210701-pages-meta-history6.xml-p11219905p11293369.7z2021-07-04 13:26 376M
[ARC]dewiki-20210701-pages-meta-history6.xml-p11219905p11293369.bz22021-07-04 01:43 3.8G
[CMP]dewiki-20210701-pages-meta-history6.xml-p11293370p11510229.7z2021-07-04 13:23 438M
[ARC]dewiki-20210701-pages-meta-history6.xml-p11293370p11510229.bz22021-07-04 01:33 1.8G
[CMP]dewiki-20210701-pages-meta-history6.xml-p11510230p11685766.7z2021-07-04 13:25 436M
[ARC]dewiki-20210701-pages-meta-history6.xml-p11510230p11685766.bz22021-07-04 01:41 3.1G
[CMP]dewiki-20210701-pages-meta-history6.xml-p11685767p11838255.7z2021-07-04 13:23 395M
[ARC]dewiki-20210701-pages-meta-history6.xml-p11685767p11838255.bz22021-07-04 01:52 3.1G
[ARC]dewiki-20210701-protected_titles.sql.gz2021-07-01 19:02 3.3M
[ARC]dewiki-20210701-redirect.sql.gz2021-07-01 19:02 21M
[TXT]dewiki-20210701-runsettings.txt2021-07-01 14:00 84
[   ]dewiki-20210701-sha1sums.json2021-07-04 13:48 42K
[TXT]dewiki-20210701-sha1sums.txt2021-07-04 13:48 40K
[ARC]dewiki-20210701-site_stats.sql.gz2021-07-01 18:41 827
[ARC]dewiki-20210701-siteinfo-namespaces.json.gz2021-07-02 19:28 6.0K
[ARC]dewiki-20210701-sites.sql.gz2021-07-01 20:53 21K
[ARC]dewiki-20210701-stub-articles.xml.gz2021-07-01 18:19 503M
[ARC]dewiki-20210701-stub-articles1.xml.gz2021-07-01 16:58 16M
[ARC]dewiki-20210701-stub-articles2.xml.gz2021-07-01 17:15 42M
[ARC]dewiki-20210701-stub-articles3.xml.gz2021-07-01 17:37 74M
[ARC]dewiki-20210701-stub-articles4.xml.gz2021-07-01 17:48 101M
[ARC]dewiki-20210701-stub-articles5.xml.gz2021-07-01 18:04 140M
[ARC]dewiki-20210701-stub-articles6.xml.gz2021-07-01 16:45 129M
[ARC]dewiki-20210701-stub-meta-current.xml.gz2021-07-01 18:19 723M
[ARC]dewiki-20210701-stub-meta-current1.xml.gz2021-07-01 16:58 20M
[ARC]dewiki-20210701-stub-meta-current2.xml.gz2021-07-01 17:15 56M
[ARC]dewiki-20210701-stub-meta-current3.xml.gz2021-07-01 17:37 107M
[ARC]dewiki-20210701-stub-meta-current4.xml.gz2021-07-01 17:48 149M
[ARC]dewiki-20210701-stub-meta-current5.xml.gz2021-07-01 18:04 205M
[ARC]dewiki-20210701-stub-meta-current6.xml.gz2021-07-01 16:45 185M
[ARC]dewiki-20210701-stub-meta-history.xml.gz2021-07-01 18:19 14G
[ARC]dewiki-20210701-stub-meta-history1.xml.gz2021-07-01 16:58 2.4G
[ARC]dewiki-20210701-stub-meta-history2.xml.gz2021-07-01 17:15 2.5G
[ARC]dewiki-20210701-stub-meta-history3.xml.gz2021-07-01 17:37 2.5G
[ARC]dewiki-20210701-stub-meta-history4.xml.gz2021-07-01 17:48 2.4G
[ARC]dewiki-20210701-stub-meta-history5.xml.gz2021-07-01 18:04 2.4G
[ARC]dewiki-20210701-stub-meta-history6.xml.gz2021-07-01 16:45 1.4G
[ARC]dewiki-20210701-templatelinks.sql.gz2021-07-01 18:52 220M
[ARC]dewiki-20210701-user_former_groups.sql.gz2021-07-01 18:58 4.5K
[ARC]dewiki-20210701-user_groups.sql.gz2021-07-01 18:57 198K
[ARC]dewiki-20210701-wbc_entity_usage.sql.gz2021-07-01 20:54 144M
[   ]dumpruninfo.json2021-07-04 13:49 3.6K
[TXT]dumpruninfo.txt2021-07-04 13:49 3.1K
[   ]dumpspecialfiles.json2021-07-04 13:48 127
[   ]dumpstatus.json2021-07-04 13:48 109K
[HTM]index.html2021-07-04 13:48 85K
[TXT]md5sums-dewiki-20210701-abstract.xml.gz.txt2021-07-02 23:11 66
[TXT]md5sums-dewiki-20210701-abstract1.xml.gz.txt2021-07-02 23:11 67
[TXT]md5sums-dewiki-20210701-abstract2.xml.gz.txt2021-07-02 23:11 67
[TXT]md5sums-dewiki-20210701-abstract3.xml.gz.txt2021-07-02 23:11 67
[TXT]md5sums-dewiki-20210701-abstract4.xml.gz.txt2021-07-02 23:11 67
[TXT]md5sums-dewiki-20210701-abstract5.xml.gz.txt2021-07-02 23:11 67
[TXT]md5sums-dewiki-20210701-abstract6.xml.gz.txt2021-07-02 23:11 67
[TXT]md5sums-dewiki-20210701-all-titles-in-ns0.gz.txt2021-07-02 19:28 71
[TXT]md5sums-dewiki-20210701-all-titles.gz.txt2021-07-02 19:28 64
[TXT]md5sums-dewiki-20210701-babel.sql.gz.txt2021-07-01 20:54 63
[TXT]md5sums-dewiki-20210701-category.sql.gz.txt2021-07-01 18:58 66
[TXT]md5sums-dewiki-20210701-categorylinks.sql.gz.txt2021-07-01 18:49 71
[TXT]md5sums-dewiki-20210701-change_tag.sql.gz.txt2021-07-01 19:04 68
[TXT]md5sums-dewiki-20210701-change_tag_def.sql.gz.txt2021-07-01 19:05 72
[TXT]md5sums-dewiki-20210701-externallinks.sql.gz.txt2021-07-01 18:55 71
[TXT]md5sums-dewiki-20210701-flaggedimages.sql.gz.txt2021-07-01 20:05 71
[TXT]md5sums-dewiki-20210701-flaggedpage_config.sql.gz.txt2021-07-01 20:13 76
[TXT]md5sums-dewiki-20210701-flaggedpage_pending.sql.gz.txt2021-07-01 20:13 77
[TXT]md5sums-dewiki-20210701-flaggedpages.sql.gz.txt2021-07-01 19:05 70
[TXT]md5sums-dewiki-20210701-flaggedrevs.sql.gz.txt2021-07-01 19:10 69
[TXT]md5sums-dewiki-20210701-flaggedrevs_promote.sql.gz.txt2021-07-01 20:14 77
[TXT]md5sums-dewiki-20210701-flaggedrevs_statistics.sql.gz.txt2021-07-01 20:14 80
[TXT]md5sums-dewiki-20210701-flaggedrevs_tracking.sql.gz.txt2021-07-01 20:14 78
[TXT]md5sums-dewiki-20210701-flaggedtemplates.sql.gz.txt2021-07-01 20:51 74
[TXT]md5sums-dewiki-20210701-geo_tags.sql.gz.txt2021-07-01 19:03 66
[TXT]md5sums-dewiki-20210701-image.sql.gz.txt2021-07-01 18:41 63
[TXT]md5sums-dewiki-20210701-imagelinks.sql.gz.txt2021-07-01 18:50 68
[TXT]md5sums-dewiki-20210701-iwlinks.sql.gz.txt2021-07-01 19:03 65
[TXT]md5sums-dewiki-20210701-langlinks.sql.gz.txt2021-07-01 18:57 67
[TXT]md5sums-dewiki-20210701-page.sql.gz.txt2021-07-01 19:00 62
[TXT]md5sums-dewiki-20210701-page_props.sql.gz.txt2021-07-01 19:01 68
[TXT]md5sums-dewiki-20210701-page_restrictions.sql.gz.txt2021-07-01 19:00 75
[TXT]md5sums-dewiki-20210701-pagelinks.sql.gz.txt2021-07-01 18:47 67
[TXT]md5sums-dewiki-20210701-pages-articles-multistream-index.txt.bz2.txt2021-07-02 03:38 91
[TXT]md5sums-dewiki-20210701-pages-articles-multistream-index1.txt-p1p297012.bz2.txt2021-07-02 03:20 102
[TXT]md5sums-dewiki-20210701-pages-articles-multistream-index2.txt-p297013p1262093.bz2.txt2021-07-02 03:21 108
[TXT]md5sums-dewiki-20210701-pages-articles-multistream-index3.txt-p1262094p2762093.bz2.txt2021-07-02 03:21 109
[TXT]md5sums-dewiki-20210701-pages-articles-multistream-index3.txt-p2762094p3376257.bz2.txt2021-07-02 03:21 109
[TXT]md5sums-dewiki-20210701-pages-articles-multistream-index4.txt-p3376258p4876257.bz2.txt2021-07-02 03:22 109
[TXT]md5sums-dewiki-20210701-pages-articles-multistream-index4.txt-p4876258p6115464.bz2.txt2021-07-02 03:22 109
[TXT]md5sums-dewiki-20210701-pages-articles-multistream-index5.txt-p6115465p7615464.bz2.txt2021-07-02 03:22 109
[TXT]md5sums-dewiki-20210701-pages-articles-multistream-index5.txt-p7615465p9115464.bz2.txt2021-07-02 03:23 109
[TXT]md5sums-dewiki-20210701-pages-articles-multistream-index5.txt-p9115465p9261244.bz2.txt2021-07-02 03:23 109
[TXT]md5sums-dewiki-20210701-pages-articles-multistream-index6.txt-p9261245p10761244.bz2.txt2021-07-02 03:23 110
[TXT]md5sums-dewiki-20210701-pages-articles-multistream-index6.txt-p10761245p11838254.bz2.txt2021-07-02 03:23 111
[TXT]md5sums-dewiki-20210701-pages-articles-multistream.xml.bz2.txt2021-07-02 03:37 85
[TXT]md5sums-dewiki-20210701-pages-articles-multistream1.xml-p1p297012.bz2.txt2021-07-02 03:20 96
[TXT]md5sums-dewiki-20210701-pages-articles-multistream2.xml-p297013p1262093.bz2.txt2021-07-02 03:20 102
[TXT]md5sums-dewiki-20210701-pages-articles-multistream3.xml-p1262094p2762093.bz2.txt2021-07-02 03:21 103
[TXT]md5sums-dewiki-20210701-pages-articles-multistream3.xml-p2762094p3376257.bz2.txt2021-07-02 03:21 103
[TXT]md5sums-dewiki-20210701-pages-articles-multistream4.xml-p3376258p4876257.bz2.txt2021-07-02 03:21 103
[TXT]md5sums-dewiki-20210701-pages-articles-multistream4.xml-p4876258p6115464.bz2.txt2021-07-02 03:22 103
[TXT]md5sums-dewiki-20210701-pages-articles-multistream5.xml-p6115465p7615464.bz2.txt2021-07-02 03:22 103
[TXT]md5sums-dewiki-20210701-pages-articles-multistream5.xml-p7615465p9115464.bz2.txt2021-07-02 03:23 103
[TXT]md5sums-dewiki-20210701-pages-articles-multistream5.xml-p9115465p9261244.bz2.txt2021-07-02 03:23 103
[TXT]md5sums-dewiki-20210701-pages-articles-multistream6.xml-p9261245p10761244.bz2.txt2021-07-02 03:23 104
[TXT]md5sums-dewiki-20210701-pages-articles-multistream6.xml-p10761245p11838254.bz2.txt2021-07-02 03:23 105
[TXT]md5sums-dewiki-20210701-pages-articles.xml.bz2.txt2021-07-01 22:47 73
[TXT]md5sums-dewiki-20210701-pages-articles1.xml-p1p297012.bz2.txt2021-07-01 22:13 84
[TXT]md5sums-dewiki-20210701-pages-articles2.xml-p297013p1262093.bz2.txt2021-07-01 22:14 90
[TXT]md5sums-dewiki-20210701-pages-articles3.xml-p1262094p2762093.bz2.txt2021-07-01 22:14 91
[TXT]md5sums-dewiki-20210701-pages-articles3.xml-p2762094p3376257.bz2.txt2021-07-01 22:14 91
[TXT]md5sums-dewiki-20210701-pages-articles4.xml-p3376258p4876257.bz2.txt2021-07-01 22:14 91
[TXT]md5sums-dewiki-20210701-pages-articles4.xml-p4876258p6115464.bz2.txt2021-07-01 22:15 91
[TXT]md5sums-dewiki-20210701-pages-articles5.xml-p6115465p7615464.bz2.txt2021-07-01 22:15 91
[TXT]md5sums-dewiki-20210701-pages-articles5.xml-p7615465p9115464.bz2.txt2021-07-01 22:15 91
[TXT]md5sums-dewiki-20210701-pages-articles5.xml-p9115465p9261244.bz2.txt2021-07-01 22:15 91
[TXT]md5sums-dewiki-20210701-pages-articles6.xml-p9261245p10761244.bz2.txt2021-07-01 22:16 92
[TXT]md5sums-dewiki-20210701-pages-articles6.xml-p10761245p11838254.bz2.txt2021-07-01 22:16 93
[TXT]md5sums-dewiki-20210701-pages-logging.xml.gz.txt2021-07-02 23:42 71
[TXT]md5sums-dewiki-20210701-pages-logging1.xml.gz.txt2021-07-02 23:37 72
[TXT]md5sums-dewiki-20210701-pages-logging2.xml.gz.txt2021-07-02 23:38 72
[TXT]md5sums-dewiki-20210701-pages-logging3.xml.gz.txt2021-07-02 23:38 72
[TXT]md5sums-dewiki-20210701-pages-logging4.xml.gz.txt2021-07-02 23:38 72
[TXT]md5sums-dewiki-20210701-pages-logging5.xml.gz.txt2021-07-02 23:39 72
[TXT]md5sums-dewiki-20210701-pages-logging6.xml.gz.txt2021-07-02 23:39 72
[TXT]md5sums-dewiki-20210701-pages-meta-current.xml.bz2.txt2021-07-02 10:20 77
[TXT]md5sums-dewiki-20210701-pages-meta-current1.xml-p1p297012.bz2.txt2021-07-02 09:36 88
[TXT]md5sums-dewiki-20210701-pages-meta-current2.xml-p297013p1262093.bz2.txt2021-07-02 09:36 94
[TXT]md5sums-dewiki-20210701-pages-meta-current3.xml-p1262094p2762093.bz2.txt2021-07-02 09:36 95
[TXT]md5sums-dewiki-20210701-pages-meta-current3.xml-p2762094p3376257.bz2.txt2021-07-02 09:37 95
[TXT]md5sums-dewiki-20210701-pages-meta-current4.xml-p3376258p4876257.bz2.txt2021-07-02 09:37 95
[TXT]md5sums-dewiki-20210701-pages-meta-current4.xml-p4876258p6115464.bz2.txt2021-07-02 09:37 95
[TXT]md5sums-dewiki-20210701-pages-meta-current5.xml-p6115465p7615464.bz2.txt2021-07-02 09:38 95
[TXT]md5sums-dewiki-20210701-pages-meta-current5.xml-p7615465p9115464.bz2.txt2021-07-02 09:38 95
[TXT]md5sums-dewiki-20210701-pages-meta-current5.xml-p9115465p9261244.bz2.txt2021-07-02 09:39 95
[TXT]md5sums-dewiki-20210701-pages-meta-current6.xml-p9261245p10761244.bz2.txt2021-07-02 09:39 96
[TXT]md5sums-dewiki-20210701-pages-meta-current6.xml-p10761245p11838255.bz2.txt2021-07-02 09:40 97
[TXT]md5sums-dewiki-20210701-pages-meta-history1.xml-p1p1613.7z.txt2021-07-04 13:26 85
[TXT]md5sums-dewiki-20210701-pages-meta-history1.xml-p1p1613.bz2.txt2021-07-04 01:53 86
[TXT]md5sums-dewiki-20210701-pages-meta-history1.xml-p1614p3287.7z.txt2021-07-04 13:26 88
[TXT]md5sums-dewiki-20210701-pages-meta-history1.xml-p1614p3287.bz2.txt2021-07-04 01:54 89
[TXT]md5sums-dewiki-20210701-pages-meta-history1.xml-p3288p5269.7z.txt2021-07-04 13:26 88
[TXT]md5sums-dewiki-20210701-pages-meta-history1.xml-p3288p5269.bz2.txt2021-07-04 01:55 89
[TXT]md5sums-dewiki-20210701-pages-meta-history1.xml-p5270p6254.7z.txt2021-07-04 13:26 88
[TXT]md5sums-dewiki-20210701-pages-meta-history1.xml-p5270p6254.bz2.txt2021-07-04 01:56 89
[TXT]md5sums-dewiki-20210701-pages-meta-history1.xml-p6255p9313.7z.txt2021-07-04 13:26 88
[TXT]md5sums-dewiki-20210701-pages-meta-history1.xml-p6255p9313.bz2.txt2021-07-04 01:57 89
[TXT]md5sums-dewiki-20210701-pages-meta-history1.xml-p9314p12184.7z.txt2021-07-04 13:26 89
[TXT]md5sums-dewiki-20210701-pages-meta-history1.xml-p9314p12184.bz2.txt2021-07-04 01:58 90
[TXT]md5sums-dewiki-20210701-pages-meta-history1.xml-p12185p15377.7z.txt2021-07-04 13:26 90
[TXT]md5sums-dewiki-20210701-pages-meta-history1.xml-p12185p15377.bz2.txt2021-07-04 02:00 91
[TXT]md5sums-dewiki-20210701-pages-meta-history1.xml-p15378p18479.7z.txt2021-07-04 13:26 90
[TXT]md5sums-dewiki-20210701-pages-meta-history1.xml-p15378p18479.bz2.txt2021-07-04 02:01 91
[TXT]md5sums-dewiki-20210701-pages-meta-history1.xml-p18480p23148.7z.txt2021-07-04 13:26 90
[TXT]md5sums-dewiki-20210701-pages-meta-history1.xml-p18480p23148.bz2.txt2021-07-04 02:02 91
[TXT]md5sums-dewiki-20210701-pages-meta-history1.xml-p23149p30116.7z.txt2021-07-04 13:27 90
[TXT]md5sums-dewiki-20210701-pages-meta-history1.xml-p23149p30116.bz2.txt2021-07-04 02:04 91
[TXT]md5sums-dewiki-20210701-pages-meta-history1.xml-p30117p35304.7z.txt2021-07-04 13:27 90
[TXT]md5sums-dewiki-20210701-pages-meta-history1.xml-p30117p35304.bz2.txt2021-07-04 02:05 91
[TXT]md5sums-dewiki-20210701-pages-meta-history1.xml-p35305p43317.7z.txt2021-07-04 13:27 90
[TXT]md5sums-dewiki-20210701-pages-meta-history1.xml-p35305p43317.bz2.txt2021-07-04 02:06 91
[TXT]md5sums-dewiki-20210701-pages-meta-history1.xml-p43318p51144.7z.txt2021-07-04 13:27 90
[TXT]md5sums-dewiki-20210701-pages-meta-history1.xml-p43318p51144.bz2.txt2021-07-04 02:07 91
[TXT]md5sums-dewiki-20210701-pages-meta-history1.xml-p51145p60034.7z.txt2021-07-04 13:27 90
[TXT]md5sums-dewiki-20210701-pages-meta-history1.xml-p51145p60034.bz2.txt2021-07-04 02:08 91
[TXT]md5sums-dewiki-20210701-pages-meta-history1.xml-p60035p71891.7z.txt2021-07-04 13:27 90
[TXT]md5sums-dewiki-20210701-pages-meta-history1.xml-p60035p71891.bz2.txt2021-07-04 02:09 91
[TXT]md5sums-dewiki-20210701-pages-meta-history1.xml-p71892p82254.7z.txt2021-07-04 13:27 90
[TXT]md5sums-dewiki-20210701-pages-meta-history1.xml-p71892p82254.bz2.txt2021-07-04 02:11 91
[TXT]md5sums-dewiki-20210701-pages-meta-history1.xml-p82255p95110.7z.txt2021-07-04 13:27 90
[TXT]md5sums-dewiki-20210701-pages-meta-history1.xml-p82255p95110.bz2.txt2021-07-04 02:11 91
[TXT]md5sums-dewiki-20210701-pages-meta-history1.xml-p95111p108953.7z.txt2021-07-04 13:27 91
[TXT]md5sums-dewiki-20210701-pages-meta-history1.xml-p95111p108953.bz2.txt2021-07-04 02:12 92
[TXT]md5sums-dewiki-20210701-pages-meta-history1.xml-p108954p124391.7z.txt2021-07-04 13:28 92
[TXT]md5sums-dewiki-20210701-pages-meta-history1.xml-p108954p124391.bz2.txt2021-07-04 02:13 93
[TXT]md5sums-dewiki-20210701-pages-meta-history1.xml-p124392p139248.7z.txt2021-07-04 13:28 92
[TXT]md5sums-dewiki-20210701-pages-meta-history1.xml-p124392p139248.bz2.txt2021-07-04 02:14 93
[TXT]md5sums-dewiki-20210701-pages-meta-history1.xml-p139249p155102.7z.txt2021-07-04 13:28 92
[TXT]md5sums-dewiki-20210701-pages-meta-history1.xml-p139249p155102.bz2.txt2021-07-04 02:15 93
[TXT]md5sums-dewiki-20210701-pages-meta-history1.xml-p155103p172183.7z.txt2021-07-04 13:28 92
[TXT]md5sums-dewiki-20210701-pages-meta-history1.xml-p155103p172183.bz2.txt2021-07-04 02:16 93
[TXT]md5sums-dewiki-20210701-pages-meta-history1.xml-p172184p191826.7z.txt2021-07-04 13:28 92
[TXT]md5sums-dewiki-20210701-pages-meta-history1.xml-p172184p191826.bz2.txt2021-07-04 02:16 93
[TXT]md5sums-dewiki-20210701-pages-meta-history1.xml-p191827p212610.7z.txt2021-07-04 13:28 92
[TXT]md5sums-dewiki-20210701-pages-meta-history1.xml-p191827p212610.bz2.txt2021-07-04 02:17 93
[TXT]md5sums-dewiki-20210701-pages-meta-history1.xml-p212611p234319.7z.txt2021-07-04 13:28 92
[TXT]md5sums-dewiki-20210701-pages-meta-history1.xml-p212611p234319.bz2.txt2021-07-04 02:18 93
[TXT]md5sums-dewiki-20210701-pages-meta-history1.xml-p234320p257639.7z.txt2021-07-04 13:28 92
[TXT]md5sums-dewiki-20210701-pages-meta-history1.xml-p234320p257639.bz2.txt2021-07-04 02:19 93
[TXT]md5sums-dewiki-20210701-pages-meta-history1.xml-p257640p281911.7z.txt2021-07-04 13:28 92
[TXT]md5sums-dewiki-20210701-pages-meta-history1.xml-p257640p281911.bz2.txt2021-07-04 02:20 93
[TXT]md5sums-dewiki-20210701-pages-meta-history1.xml-p281912p297012.7z.txt2021-07-04 13:29 92
[TXT]md5sums-dewiki-20210701-pages-meta-history1.xml-p281912p297012.bz2.txt2021-07-04 02:20 93
[TXT]md5sums-dewiki-20210701-pages-meta-history2.xml-p297013p323683.7z.txt2021-07-04 13:29 92
[TXT]md5sums-dewiki-20210701-pages-meta-history2.xml-p297013p323683.bz2.txt2021-07-04 02:21 93
[TXT]md5sums-dewiki-20210701-pages-meta-history2.xml-p323684p350754.7z.txt2021-07-04 13:29 92
[TXT]md5sums-dewiki-20210701-pages-meta-history2.xml-p323684p350754.bz2.txt2021-07-04 02:21 93
[TXT]md5sums-dewiki-20210701-pages-meta-history2.xml-p350755p381093.7z.txt2021-07-04 13:29 92
[TXT]md5sums-dewiki-20210701-pages-meta-history2.xml-p350755p381093.bz2.txt2021-07-04 02:22 93
[TXT]md5sums-dewiki-20210701-pages-meta-history2.xml-p381094p413698.7z.txt2021-07-04 13:29 92
[TXT]md5sums-dewiki-20210701-pages-meta-history2.xml-p381094p413698.bz2.txt2021-07-04 02:23 93
[TXT]md5sums-dewiki-20210701-pages-meta-history2.xml-p413699p446258.7z.txt2021-07-04 13:29 92
[TXT]md5sums-dewiki-20210701-pages-meta-history2.xml-p413699p446258.bz2.txt2021-07-04 02:23 93
[TXT]md5sums-dewiki-20210701-pages-meta-history2.xml-p446259p475180.7z.txt2021-07-04 13:29 92
[TXT]md5sums-dewiki-20210701-pages-meta-history2.xml-p446259p475180.bz2.txt2021-07-04 02:24 93
[TXT]md5sums-dewiki-20210701-pages-meta-history2.xml-p475181p505423.7z.txt2021-07-04 13:29 92
[TXT]md5sums-dewiki-20210701-pages-meta-history2.xml-p475181p505423.bz2.txt2021-07-04 02:25 93
[TXT]md5sums-dewiki-20210701-pages-meta-history2.xml-p505424p545928.7z.txt2021-07-04 13:29 92
[TXT]md5sums-dewiki-20210701-pages-meta-history2.xml-p505424p545928.bz2.txt2021-07-04 02:25 93
[TXT]md5sums-dewiki-20210701-pages-meta-history2.xml-p545929p586723.7z.txt2021-07-04 13:29 92
[TXT]md5sums-dewiki-20210701-pages-meta-history2.xml-p545929p586723.bz2.txt2021-07-04 02:26 93
[TXT]md5sums-dewiki-20210701-pages-meta-history2.xml-p586724p624126.7z.txt2021-07-04 13:30 92
[TXT]md5sums-dewiki-20210701-pages-meta-history2.xml-p586724p624126.bz2.txt2021-07-04 02:27 93
[TXT]md5sums-dewiki-20210701-pages-meta-history2.xml-p624127p668715.7z.txt2021-07-04 13:30 92
[TXT]md5sums-dewiki-20210701-pages-meta-history2.xml-p624127p668715.bz2.txt2021-07-04 02:28 93
[TXT]md5sums-dewiki-20210701-pages-meta-history2.xml-p668716p700153.7z.txt2021-07-04 13:30 92
[TXT]md5sums-dewiki-20210701-pages-meta-history2.xml-p668716p700153.bz2.txt2021-07-04 02:29 93
[TXT]md5sums-dewiki-20210701-pages-meta-history2.xml-p700154p737474.7z.txt2021-07-04 13:30 92
[TXT]md5sums-dewiki-20210701-pages-meta-history2.xml-p700154p737474.bz2.txt2021-07-04 02:30 93
[TXT]md5sums-dewiki-20210701-pages-meta-history2.xml-p737475p779952.7z.txt2021-07-04 13:30 92
[TXT]md5sums-dewiki-20210701-pages-meta-history2.xml-p737475p779952.bz2.txt2021-07-04 02:31 93
[TXT]md5sums-dewiki-20210701-pages-meta-history2.xml-p779953p823086.7z.txt2021-07-04 13:30 92
[TXT]md5sums-dewiki-20210701-pages-meta-history2.xml-p779953p823086.bz2.txt2021-07-04 02:32 93
[TXT]md5sums-dewiki-20210701-pages-meta-history2.xml-p823087p863796.7z.txt2021-07-04 13:30 92
[TXT]md5sums-dewiki-20210701-pages-meta-history2.xml-p823087p863796.bz2.txt2021-07-04 02:32 93
[TXT]md5sums-dewiki-20210701-pages-meta-history2.xml-p863797p911660.7z.txt2021-07-04 13:30 92
[TXT]md5sums-dewiki-20210701-pages-meta-history2.xml-p863797p911660.bz2.txt2021-07-04 02:34 93
[TXT]md5sums-dewiki-20210701-pages-meta-history2.xml-p911661p964752.7z.txt2021-07-04 13:31 92
[TXT]md5sums-dewiki-20210701-pages-meta-history2.xml-p911661p964752.bz2.txt2021-07-04 02:34 93
[TXT]md5sums-dewiki-20210701-pages-meta-history2.xml-p964753p1012527.7z.txt2021-07-04 13:31 93
[TXT]md5sums-dewiki-20210701-pages-meta-history2.xml-p964753p1012527.bz2.txt2021-07-04 02:35 94
[TXT]md5sums-dewiki-20210701-pages-meta-history2.xml-p1012528p1064200.7z.txt2021-07-04 13:31 94
[TXT]md5sums-dewiki-20210701-pages-meta-history2.xml-p1012528p1064200.bz2.txt2021-07-04 02:36 95
[TXT]md5sums-dewiki-20210701-pages-meta-history2.xml-p1064201p1127599.7z.txt2021-07-04 13:31 94
[TXT]md5sums-dewiki-20210701-pages-meta-history2.xml-p1064201p1127599.bz2.txt2021-07-04 02:37 95
[TXT]md5sums-dewiki-20210701-pages-meta-history2.xml-p1127600p1183907.7z.txt2021-07-04 13:31 94
[TXT]md5sums-dewiki-20210701-pages-meta-history2.xml-p1127600p1183907.bz2.txt2021-07-04 02:38 95
[TXT]md5sums-dewiki-20210701-pages-meta-history2.xml-p1183908p1242051.7z.txt2021-07-04 13:31 94
[TXT]md5sums-dewiki-20210701-pages-meta-history2.xml-p1183908p1242051.bz2.txt2021-07-04 02:39 95
[TXT]md5sums-dewiki-20210701-pages-meta-history2.xml-p1242052p1262093.7z.txt2021-07-04 13:31 94
[TXT]md5sums-dewiki-20210701-pages-meta-history2.xml-p1242052p1262093.bz2.txt2021-07-04 02:40 95
[TXT]md5sums-dewiki-20210701-pages-meta-history3.xml-p1262094p1322522.7z.txt2021-07-04 13:31 94
[TXT]md5sums-dewiki-20210701-pages-meta-history3.xml-p1262094p1322522.bz2.txt2021-07-04 02:41 95
[TXT]md5sums-dewiki-20210701-pages-meta-history3.xml-p1322523p1384392.7z.txt2021-07-04 13:31 94
[TXT]md5sums-dewiki-20210701-pages-meta-history3.xml-p1322523p1384392.bz2.txt2021-07-04 02:42 95
[TXT]md5sums-dewiki-20210701-pages-meta-history3.xml-p1384393p1448510.7z.txt2021-07-04 13:32 94
[TXT]md5sums-dewiki-20210701-pages-meta-history3.xml-p1384393p1448510.bz2.txt2021-07-04 02:43 95
[TXT]md5sums-dewiki-20210701-pages-meta-history3.xml-p1448511p1519304.7z.txt2021-07-04 13:32 94
[TXT]md5sums-dewiki-20210701-pages-meta-history3.xml-p1448511p1519304.bz2.txt2021-07-04 02:44 95
[TXT]md5sums-dewiki-20210701-pages-meta-history3.xml-p1519305p1591506.7z.txt2021-07-04 13:32 94
[TXT]md5sums-dewiki-20210701-pages-meta-history3.xml-p1519305p1591506.bz2.txt2021-07-04 02:44 95
[TXT]md5sums-dewiki-20210701-pages-meta-history3.xml-p1591507p1661627.7z.txt2021-07-04 13:32 94
[TXT]md5sums-dewiki-20210701-pages-meta-history3.xml-p1591507p1661627.bz2.txt2021-07-04 02:45 95
[TXT]md5sums-dewiki-20210701-pages-meta-history3.xml-p1661628p1729807.7z.txt2021-07-04 13:32 94
[TXT]md5sums-dewiki-20210701-pages-meta-history3.xml-p1661628p1729807.bz2.txt2021-07-04 02:46 95
[TXT]md5sums-dewiki-20210701-pages-meta-history3.xml-p1729808p1804501.7z.txt2021-07-04 13:32 94
[TXT]md5sums-dewiki-20210701-pages-meta-history3.xml-p1729808p1804501.bz2.txt2021-07-04 02:47 95
[TXT]md5sums-dewiki-20210701-pages-meta-history3.xml-p1804502p1884034.7z.txt2021-07-04 13:32 94
[TXT]md5sums-dewiki-20210701-pages-meta-history3.xml-p1804502p1884034.bz2.txt2021-07-04 02:48 95
[TXT]md5sums-dewiki-20210701-pages-meta-history3.xml-p1884035p1968311.7z.txt2021-07-04 13:33 94
[TXT]md5sums-dewiki-20210701-pages-meta-history3.xml-p1884035p1968311.bz2.txt2021-07-04 02:49 95
[TXT]md5sums-dewiki-20210701-pages-meta-history3.xml-p1968312p2083034.7z.txt2021-07-04 13:33 94
[TXT]md5sums-dewiki-20210701-pages-meta-history3.xml-p1968312p2083034.bz2.txt2021-07-04 02:50 95
[TXT]md5sums-dewiki-20210701-pages-meta-history3.xml-p2083035p2170611.7z.txt2021-07-04 13:33 94
[TXT]md5sums-dewiki-20210701-pages-meta-history3.xml-p2083035p2170611.bz2.txt2021-07-04 02:51 95
[TXT]md5sums-dewiki-20210701-pages-meta-history3.xml-p2170612p2272194.7z.txt2021-07-04 13:33 94
[TXT]md5sums-dewiki-20210701-pages-meta-history3.xml-p2170612p2272194.bz2.txt2021-07-04 02:52 95
[TXT]md5sums-dewiki-20210701-pages-meta-history3.xml-p2272195p2381454.7z.txt2021-07-04 13:33 94
[TXT]md5sums-dewiki-20210701-pages-meta-history3.xml-p2272195p2381454.bz2.txt2021-07-04 02:53 95
[TXT]md5sums-dewiki-20210701-pages-meta-history3.xml-p2381455p2501100.7z.txt2021-07-04 13:33 94
[TXT]md5sums-dewiki-20210701-pages-meta-history3.xml-p2381455p2501100.bz2.txt2021-07-04 02:54 95
[TXT]md5sums-dewiki-20210701-pages-meta-history3.xml-p2501101p2595015.7z.txt2021-07-04 13:33 94
[TXT]md5sums-dewiki-20210701-pages-meta-history3.xml-p2501101p2595015.bz2.txt2021-07-04 02:56 95
[TXT]md5sums-dewiki-20210701-pages-meta-history3.xml-p2595016p2692005.7z.txt2021-07-04 13:34 94
[TXT]md5sums-dewiki-20210701-pages-meta-history3.xml-p2595016p2692005.bz2.txt2021-07-04 02:57 95
[TXT]md5sums-dewiki-20210701-pages-meta-history3.xml-p2692006p2782089.7z.txt2021-07-04 13:34 94
[TXT]md5sums-dewiki-20210701-pages-meta-history3.xml-p2692006p2782089.bz2.txt2021-07-04 02:59 95
[TXT]md5sums-dewiki-20210701-pages-meta-history3.xml-p2782090p2874951.7z.txt2021-07-04 13:34 94
[TXT]md5sums-dewiki-20210701-pages-meta-history3.xml-p2782090p2874951.bz2.txt2021-07-04 03:00 95
[TXT]md5sums-dewiki-20210701-pages-meta-history3.xml-p2874952p2982965.7z.txt2021-07-04 13:34 94
[TXT]md5sums-dewiki-20210701-pages-meta-history3.xml-p2874952p2982965.bz2.txt2021-07-04 03:01 95
[TXT]md5sums-dewiki-20210701-pages-meta-history3.xml-p2982966p3081766.7z.txt2021-07-04 13:34 94
[TXT]md5sums-dewiki-20210701-pages-meta-history3.xml-p2982966p3081766.bz2.txt2021-07-04 03:03 95
[TXT]md5sums-dewiki-20210701-pages-meta-history3.xml-p3081767p3175653.7z.txt2021-07-04 13:34 94
[TXT]md5sums-dewiki-20210701-pages-meta-history3.xml-p3081767p3175653.bz2.txt2021-07-04 03:04 95
[TXT]md5sums-dewiki-20210701-pages-meta-history3.xml-p3175654p3299223.7z.txt2021-07-04 13:34 94
[TXT]md5sums-dewiki-20210701-pages-meta-history3.xml-p3175654p3299223.bz2.txt2021-07-04 03:05 95
[TXT]md5sums-dewiki-20210701-pages-meta-history3.xml-p3299224p3376257.7z.txt2021-07-04 13:35 94
[TXT]md5sums-dewiki-20210701-pages-meta-history3.xml-p3299224p3376257.bz2.txt2021-07-04 03:06 95
[TXT]md5sums-dewiki-20210701-pages-meta-history4.xml-p3376258p3478905.7z.txt2021-07-04 13:35 94
[TXT]md5sums-dewiki-20210701-pages-meta-history4.xml-p3376258p3478905.bz2.txt2021-07-04 03:07 95
[TXT]md5sums-dewiki-20210701-pages-meta-history4.xml-p3478906p3593850.7z.txt2021-07-04 13:35 94
[TXT]md5sums-dewiki-20210701-pages-meta-history4.xml-p3478906p3593850.bz2.txt2021-07-04 03:08 95
[TXT]md5sums-dewiki-20210701-pages-meta-history4.xml-p3593851p3701519.7z.txt2021-07-04 13:35 94
[TXT]md5sums-dewiki-20210701-pages-meta-history4.xml-p3593851p3701519.bz2.txt2021-07-04 03:09 95
[TXT]md5sums-dewiki-20210701-pages-meta-history4.xml-p3701520p3806993.7z.txt2021-07-04 13:35 94
[TXT]md5sums-dewiki-20210701-pages-meta-history4.xml-p3701520p3806993.bz2.txt2021-07-04 03:10 95
[TXT]md5sums-dewiki-20210701-pages-meta-history4.xml-p3806994p3914584.7z.txt2021-07-04 13:35 94
[TXT]md5sums-dewiki-20210701-pages-meta-history4.xml-p3806994p3914584.bz2.txt2021-07-04 03:11 95
[TXT]md5sums-dewiki-20210701-pages-meta-history4.xml-p3914585p4039828.7z.txt2021-07-04 13:35 94
[TXT]md5sums-dewiki-20210701-pages-meta-history4.xml-p3914585p4039828.bz2.txt2021-07-04 03:13 95
[TXT]md5sums-dewiki-20210701-pages-meta-history4.xml-p4039829p4152097.7z.txt2021-07-04 13:36 94
[TXT]md5sums-dewiki-20210701-pages-meta-history4.xml-p4039829p4152097.bz2.txt2021-07-04 03:14 95
[TXT]md5sums-dewiki-20210701-pages-meta-history4.xml-p4152098p4267029.7z.txt2021-07-04 13:36 94
[TXT]md5sums-dewiki-20210701-pages-meta-history4.xml-p4152098p4267029.bz2.txt2021-07-04 03:15 95
[TXT]md5sums-dewiki-20210701-pages-meta-history4.xml-p4267030p4330230.7z.txt2021-07-04 13:36 94
[TXT]md5sums-dewiki-20210701-pages-meta-history4.xml-p4267030p4330230.bz2.txt2021-07-04 03:17 95
[TXT]md5sums-dewiki-20210701-pages-meta-history4.xml-p4330231p4390947.7z.txt2021-07-04 13:36 94
[TXT]md5sums-dewiki-20210701-pages-meta-history4.xml-p4330231p4390947.bz2.txt2021-07-04 03:19 95
[TXT]md5sums-dewiki-20210701-pages-meta-history4.xml-p4390948p4470208.7z.txt2021-07-04 13:36 94
[TXT]md5sums-dewiki-20210701-pages-meta-history4.xml-p4390948p4470208.bz2.txt2021-07-04 03:22 95
[TXT]md5sums-dewiki-20210701-pages-meta-history4.xml-p4470209p4570276.7z.txt2021-07-04 13:36 94
[TXT]md5sums-dewiki-20210701-pages-meta-history4.xml-p4470209p4570276.bz2.txt2021-07-04 03:23 95
[TXT]md5sums-dewiki-20210701-pages-meta-history4.xml-p4570277p4691098.7z.txt2021-07-04 13:37 94
[TXT]md5sums-dewiki-20210701-pages-meta-history4.xml-p4570277p4691098.bz2.txt2021-07-04 03:25 95
[TXT]md5sums-dewiki-20210701-pages-meta-history4.xml-p4691099p4802864.7z.txt2021-07-04 13:37 94
[TXT]md5sums-dewiki-20210701-pages-meta-history4.xml-p4691099p4802864.bz2.txt2021-07-04 03:27 95
[TXT]md5sums-dewiki-20210701-pages-meta-history4.xml-p4802865p4928438.7z.txt2021-07-04 13:37 94
[TXT]md5sums-dewiki-20210701-pages-meta-history4.xml-p4802865p4928438.bz2.txt2021-07-04 03:29 95
[TXT]md5sums-dewiki-20210701-pages-meta-history4.xml-p4928439p5022484.7z.txt2021-07-04 13:37 94
[TXT]md5sums-dewiki-20210701-pages-meta-history4.xml-p4928439p5022484.bz2.txt2021-07-04 03:30 95
[TXT]md5sums-dewiki-20210701-pages-meta-history4.xml-p5022485p5130574.7z.txt2021-07-04 13:37 94
[TXT]md5sums-dewiki-20210701-pages-meta-history4.xml-p5022485p5130574.bz2.txt2021-07-04 03:32 95
[TXT]md5sums-dewiki-20210701-pages-meta-history4.xml-p5130575p5268714.7z.txt2021-07-04 13:37 94
[TXT]md5sums-dewiki-20210701-pages-meta-history4.xml-p5130575p5268714.bz2.txt2021-07-04 03:33 95
[TXT]md5sums-dewiki-20210701-pages-meta-history4.xml-p5268715p5364557.7z.txt2021-07-04 13:37 94
[TXT]md5sums-dewiki-20210701-pages-meta-history4.xml-p5268715p5364557.bz2.txt2021-07-04 03:35 95
[TXT]md5sums-dewiki-20210701-pages-meta-history4.xml-p5364558p5478632.7z.txt2021-07-04 13:38 94
[TXT]md5sums-dewiki-20210701-pages-meta-history4.xml-p5364558p5478632.bz2.txt2021-07-04 03:36 95
[TXT]md5sums-dewiki-20210701-pages-meta-history4.xml-p5478633p5596344.7z.txt2021-07-04 13:38 94
[TXT]md5sums-dewiki-20210701-pages-meta-history4.xml-p5478633p5596344.bz2.txt2021-07-04 03:37 95
[TXT]md5sums-dewiki-20210701-pages-meta-history4.xml-p5596345p5722163.7z.txt2021-07-04 13:38 94
[TXT]md5sums-dewiki-20210701-pages-meta-history4.xml-p5596345p5722163.bz2.txt2021-07-04 03:39 95
[TXT]md5sums-dewiki-20210701-pages-meta-history4.xml-p5722164p5859506.7z.txt2021-07-04 13:38 94
[TXT]md5sums-dewiki-20210701-pages-meta-history4.xml-p5722164p5859506.bz2.txt2021-07-04 03:40 95
[TXT]md5sums-dewiki-20210701-pages-meta-history4.xml-p5859507p5958542.7z.txt2021-07-04 13:38 94
[TXT]md5sums-dewiki-20210701-pages-meta-history4.xml-p5859507p5958542.bz2.txt2021-07-04 03:42 95
[TXT]md5sums-dewiki-20210701-pages-meta-history4.xml-p5958543p6082328.7z.txt2021-07-04 13:38 94
[TXT]md5sums-dewiki-20210701-pages-meta-history4.xml-p5958543p6082328.bz2.txt2021-07-04 03:43 95
[TXT]md5sums-dewiki-20210701-pages-meta-history4.xml-p6082329p6115464.7z.txt2021-07-04 13:38 94
[TXT]md5sums-dewiki-20210701-pages-meta-history4.xml-p6082329p6115464.bz2.txt2021-07-04 03:44 95
[TXT]md5sums-dewiki-20210701-pages-meta-history5.xml-p6115465p6243951.7z.txt2021-07-04 13:39 94
[TXT]md5sums-dewiki-20210701-pages-meta-history5.xml-p6115465p6243951.bz2.txt2021-07-04 03:45 95
[TXT]md5sums-dewiki-20210701-pages-meta-history5.xml-p6243952p6336894.7z.txt2021-07-04 13:39 94
[TXT]md5sums-dewiki-20210701-pages-meta-history5.xml-p6243952p6336894.bz2.txt2021-07-04 03:46 95
[TXT]md5sums-dewiki-20210701-pages-meta-history5.xml-p6336895p6433791.7z.txt2021-07-04 13:39 94
[TXT]md5sums-dewiki-20210701-pages-meta-history5.xml-p6336895p6433791.bz2.txt2021-07-04 03:48 95
[TXT]md5sums-dewiki-20210701-pages-meta-history5.xml-p6433792p6529935.7z.txt2021-07-04 13:39 94
[TXT]md5sums-dewiki-20210701-pages-meta-history5.xml-p6433792p6529935.bz2.txt2021-07-04 03:53 95
[TXT]md5sums-dewiki-20210701-pages-meta-history5.xml-p6529936p6612040.7z.txt2021-07-04 13:39 94
[TXT]md5sums-dewiki-20210701-pages-meta-history5.xml-p6529936p6612040.bz2.txt2021-07-04 03:57 95
[TXT]md5sums-dewiki-20210701-pages-meta-history5.xml-p6612041p6678851.7z.txt2021-07-04 13:40 94
[TXT]md5sums-dewiki-20210701-pages-meta-history5.xml-p6612041p6678851.bz2.txt2021-07-04 04:01 95
[TXT]md5sums-dewiki-20210701-pages-meta-history5.xml-p6678852p6747532.7z.txt2021-07-04 13:40 94
[TXT]md5sums-dewiki-20210701-pages-meta-history5.xml-p6678852p6747532.bz2.txt2021-07-04 04:03 95
[TXT]md5sums-dewiki-20210701-pages-meta-history5.xml-p6747533p6864227.7z.txt2021-07-04 13:40 94
[TXT]md5sums-dewiki-20210701-pages-meta-history5.xml-p6747533p6864227.bz2.txt2021-07-04 04:05 95
[TXT]md5sums-dewiki-20210701-pages-meta-history5.xml-p6864228p6974528.7z.txt2021-07-04 13:40 94
[TXT]md5sums-dewiki-20210701-pages-meta-history5.xml-p6864228p6974528.bz2.txt2021-07-04 04:07 95
[TXT]md5sums-dewiki-20210701-pages-meta-history5.xml-p6974529p7046438.7z.txt2021-07-04 13:40 94
[TXT]md5sums-dewiki-20210701-pages-meta-history5.xml-p6974529p7046438.bz2.txt2021-07-04 04:08 95
[TXT]md5sums-dewiki-20210701-pages-meta-history5.xml-p7046439p7076405.7z.txt2021-07-04 13:40 94
[TXT]md5sums-dewiki-20210701-pages-meta-history5.xml-p7046439p7076405.bz2.txt2021-07-04 04:13 95
[TXT]md5sums-dewiki-20210701-pages-meta-history5.xml-p7076406p7165993.7z.txt2021-07-04 13:40 94
[TXT]md5sums-dewiki-20210701-pages-meta-history5.xml-p7076406p7165993.bz2.txt2021-07-04 04:16 95
[TXT]md5sums-dewiki-20210701-pages-meta-history5.xml-p7165994p7378970.7z.txt2021-07-04 13:41 94
[TXT]md5sums-dewiki-20210701-pages-meta-history5.xml-p7165994p7378970.bz2.txt2021-07-04 04:18 95
[TXT]md5sums-dewiki-20210701-pages-meta-history5.xml-p7378971p7517244.7z.txt2021-07-04 13:41 94
[TXT]md5sums-dewiki-20210701-pages-meta-history5.xml-p7378971p7517244.bz2.txt2021-07-04 04:19 95
[TXT]md5sums-dewiki-20210701-pages-meta-history5.xml-p7517245p7640638.7z.txt2021-07-04 13:41 94
[TXT]md5sums-dewiki-20210701-pages-meta-history5.xml-p7517245p7640638.bz2.txt2021-07-04 04:21 95
[TXT]md5sums-dewiki-20210701-pages-meta-history5.xml-p7640639p7756895.7z.txt2021-07-04 13:41 94
[TXT]md5sums-dewiki-20210701-pages-meta-history5.xml-p7640639p7756895.bz2.txt2021-07-04 04:22 95
[TXT]md5sums-dewiki-20210701-pages-meta-history5.xml-p7756896p7888743.7z.txt2021-07-04 13:41 94
[TXT]md5sums-dewiki-20210701-pages-meta-history5.xml-p7756896p7888743.bz2.txt2021-07-04 04:24 95
[TXT]md5sums-dewiki-20210701-pages-meta-history5.xml-p7888744p8028550.7z.txt2021-07-04 13:41 94
[TXT]md5sums-dewiki-20210701-pages-meta-history5.xml-p7888744p8028550.bz2.txt2021-07-04 04:26 95
[TXT]md5sums-dewiki-20210701-pages-meta-history5.xml-p8028551p8135170.7z.txt2021-07-04 13:42 94
[TXT]md5sums-dewiki-20210701-pages-meta-history5.xml-p8028551p8135170.bz2.txt2021-07-04 04:29 95
[TXT]md5sums-dewiki-20210701-pages-meta-history5.xml-p8135171p8269792.7z.txt2021-07-04 13:42 94
[TXT]md5sums-dewiki-20210701-pages-meta-history5.xml-p8135171p8269792.bz2.txt2021-07-04 04:30 95
[TXT]md5sums-dewiki-20210701-pages-meta-history5.xml-p8269793p8403654.7z.txt2021-07-04 13:42 94
[TXT]md5sums-dewiki-20210701-pages-meta-history5.xml-p8269793p8403654.bz2.txt2021-07-04 04:32 95
[TXT]md5sums-dewiki-20210701-pages-meta-history5.xml-p8403655p8534583.7z.txt2021-07-04 13:42 94
[TXT]md5sums-dewiki-20210701-pages-meta-history5.xml-p8403655p8534583.bz2.txt2021-07-04 04:33 95
[TXT]md5sums-dewiki-20210701-pages-meta-history5.xml-p8534584p8749927.7z.txt2021-07-04 13:42 94
[TXT]md5sums-dewiki-20210701-pages-meta-history5.xml-p8534584p8749927.bz2.txt2021-07-04 04:35 95
[TXT]md5sums-dewiki-20210701-pages-meta-history5.xml-p8749928p8893894.7z.txt2021-07-04 13:42 94
[TXT]md5sums-dewiki-20210701-pages-meta-history5.xml-p8749928p8893894.bz2.txt2021-07-04 04:37 95
[TXT]md5sums-dewiki-20210701-pages-meta-history5.xml-p8893895p9014821.7z.txt2021-07-04 13:43 94
[TXT]md5sums-dewiki-20210701-pages-meta-history5.xml-p8893895p9014821.bz2.txt2021-07-04 04:39 95
[TXT]md5sums-dewiki-20210701-pages-meta-history5.xml-p9014822p9082349.7z.txt2021-07-04 13:43 94
[TXT]md5sums-dewiki-20210701-pages-meta-history5.xml-p9014822p9082349.bz2.txt2021-07-04 04:47 95
[TXT]md5sums-dewiki-20210701-pages-meta-history5.xml-p9082350p9197170.7z.txt2021-07-04 13:43 94
[TXT]md5sums-dewiki-20210701-pages-meta-history5.xml-p9082350p9197170.bz2.txt2021-07-04 04:52 95
[TXT]md5sums-dewiki-20210701-pages-meta-history5.xml-p9197171p9261244.7z.txt2021-07-04 13:43 94
[TXT]md5sums-dewiki-20210701-pages-meta-history5.xml-p9197171p9261244.bz2.txt2021-07-04 04:53 95
[TXT]md5sums-dewiki-20210701-pages-meta-history6.xml-p9261245p9463056.7z.txt2021-07-04 13:43 94
[TXT]md5sums-dewiki-20210701-pages-meta-history6.xml-p9261245p9463056.bz2.txt2021-07-04 04:55 95
[TXT]md5sums-dewiki-20210701-pages-meta-history6.xml-p9463057p9607756.7z.txt2021-07-04 13:44 94
[TXT]md5sums-dewiki-20210701-pages-meta-history6.xml-p9463057p9607756.bz2.txt2021-07-04 04:56 95
[TXT]md5sums-dewiki-20210701-pages-meta-history6.xml-p9607757p9672913.7z.txt2021-07-04 13:44 94
[TXT]md5sums-dewiki-20210701-pages-meta-history6.xml-p9607757p9672913.bz2.txt2021-07-04 04:58 95
[TXT]md5sums-dewiki-20210701-pages-meta-history6.xml-p9672914p9745287.7z.txt2021-07-04 13:44 94
[TXT]md5sums-dewiki-20210701-pages-meta-history6.xml-p9672914p9745287.bz2.txt2021-07-04 05:00 95
[TXT]md5sums-dewiki-20210701-pages-meta-history6.xml-p9745288p9759931.7z.txt2021-07-04 13:44 94
[TXT]md5sums-dewiki-20210701-pages-meta-history6.xml-p9745288p9759931.bz2.txt2021-07-04 05:02 95
[TXT]md5sums-dewiki-20210701-pages-meta-history6.xml-p9759932p9931178.7z.txt2021-07-04 13:44 94
[TXT]md5sums-dewiki-20210701-pages-meta-history6.xml-p9759932p9931178.bz2.txt2021-07-04 05:04 95
[TXT]md5sums-dewiki-20210701-pages-meta-history6.xml-p9931179p9984638.7z.txt2021-07-04 13:45 94
[TXT]md5sums-dewiki-20210701-pages-meta-history6.xml-p9931179p9984638.bz2.txt2021-07-04 05:06 95
[TXT]md5sums-dewiki-20210701-pages-meta-history6.xml-p9984639p10083739.7z.txt2021-07-04 13:45 95
[TXT]md5sums-dewiki-20210701-pages-meta-history6.xml-p9984639p10083739.bz2.txt2021-07-04 05:07 96
[TXT]md5sums-dewiki-20210701-pages-meta-history6.xml-p10083740p10250073.7z.txt2021-07-04 13:45 96
[TXT]md5sums-dewiki-20210701-pages-meta-history6.xml-p10083740p10250073.bz2.txt2021-07-04 05:09 97
[TXT]md5sums-dewiki-20210701-pages-meta-history6.xml-p10250074p10305182.7z.txt2021-07-04 13:45 96
[TXT]md5sums-dewiki-20210701-pages-meta-history6.xml-p10250074p10305182.bz2.txt2021-07-04 05:10 97
[TXT]md5sums-dewiki-20210701-pages-meta-history6.xml-p10305183p10490763.7z.txt2021-07-04 13:46 96
[TXT]md5sums-dewiki-20210701-pages-meta-history6.xml-p10305183p10490763.bz2.txt2021-07-04 05:12 97
[TXT]md5sums-dewiki-20210701-pages-meta-history6.xml-p10490764p10685520.7z.txt2021-07-04 13:46 96
[TXT]md5sums-dewiki-20210701-pages-meta-history6.xml-p10490764p10685520.bz2.txt2021-07-04 05:14 97
[TXT]md5sums-dewiki-20210701-pages-meta-history6.xml-p10685521p10874013.7z.txt2021-07-04 13:46 96
[TXT]md5sums-dewiki-20210701-pages-meta-history6.xml-p10685521p10874013.bz2.txt2021-07-04 05:16 97
[TXT]md5sums-dewiki-20210701-pages-meta-history6.xml-p10874014p11087881.7z.txt2021-07-04 13:46 96
[TXT]md5sums-dewiki-20210701-pages-meta-history6.xml-p10874014p11087881.bz2.txt2021-07-04 05:17 97
[TXT]md5sums-dewiki-20210701-pages-meta-history6.xml-p11087882p11219904.7z.txt2021-07-04 13:46 96
[TXT]md5sums-dewiki-20210701-pages-meta-history6.xml-p11087882p11219904.bz2.txt2021-07-04 05:19 97
[TXT]md5sums-dewiki-20210701-pages-meta-history6.xml-p11219905p11293369.7z.txt2021-07-04 13:47 96
[TXT]md5sums-dewiki-20210701-pages-meta-history6.xml-p11219905p11293369.bz2.txt2021-07-04 05:22 97
[TXT]md5sums-dewiki-20210701-pages-meta-history6.xml-p11293370p11510229.7z.txt2021-07-04 13:47 96
[TXT]md5sums-dewiki-20210701-pages-meta-history6.xml-p11293370p11510229.bz2.txt2021-07-04 05:23 97
[TXT]md5sums-dewiki-20210701-pages-meta-history6.xml-p11510230p11685766.7z.txt2021-07-04 13:47 96
[TXT]md5sums-dewiki-20210701-pages-meta-history6.xml-p11510230p11685766.bz2.txt2021-07-04 05:25 97
[TXT]md5sums-dewiki-20210701-pages-meta-history6.xml-p11685767p11838255.7z.txt2021-07-04 13:47 96
[TXT]md5sums-dewiki-20210701-pages-meta-history6.xml-p11685767p11838255.bz2.txt2021-07-04 05:27 97
[TXT]md5sums-dewiki-20210701-protected_titles.sql.gz.txt2021-07-01 19:02 74
[TXT]md5sums-dewiki-20210701-redirect.sql.gz.txt2021-07-01 19:02 66
[TXT]md5sums-dewiki-20210701-site_stats.sql.gz.txt2021-07-01 18:41 68
[TXT]md5sums-dewiki-20210701-siteinfo-namespaces.json.gz.txt2021-07-02 19:28 78
[TXT]md5sums-dewiki-20210701-sites.sql.gz.txt2021-07-01 20:53 63
[TXT]md5sums-dewiki-20210701-stub-articles.xml.gz.txt2021-07-01 18:28 71
[TXT]md5sums-dewiki-20210701-stub-articles1.xml.gz.txt2021-07-01 18:14 72
[TXT]md5sums-dewiki-20210701-stub-articles2.xml.gz.txt2021-07-01 18:14 72
[TXT]md5sums-dewiki-20210701-stub-articles3.xml.gz.txt2021-07-01 18:14 72
[TXT]md5sums-dewiki-20210701-stub-articles4.xml.gz.txt2021-07-01 18:14 72
[TXT]md5sums-dewiki-20210701-stub-articles5.xml.gz.txt2021-07-01 18:14 72
[TXT]md5sums-dewiki-20210701-stub-articles6.xml.gz.txt2021-07-01 18:14 72
[TXT]md5sums-dewiki-20210701-stub-meta-current.xml.gz.txt2021-07-01 18:27 75
[TXT]md5sums-dewiki-20210701-stub-meta-current1.xml.gz.txt2021-07-01 18:13 76
[TXT]md5sums-dewiki-20210701-stub-meta-current2.xml.gz.txt2021-07-01 18:13 76
[TXT]md5sums-dewiki-20210701-stub-meta-current3.xml.gz.txt2021-07-01 18:13 76
[TXT]md5sums-dewiki-20210701-stub-meta-current4.xml.gz.txt2021-07-01 18:13 76
[TXT]md5sums-dewiki-20210701-stub-meta-current5.xml.gz.txt2021-07-01 18:13 76
[TXT]md5sums-dewiki-20210701-stub-meta-current6.xml.gz.txt2021-07-01 18:14 76
[TXT]md5sums-dewiki-20210701-stub-meta-history.xml.gz.txt2021-07-01 18:24 75
[TXT]md5sums-dewiki-20210701-stub-meta-history1.xml.gz.txt2021-07-01 18:08 76
[TXT]md5sums-dewiki-20210701-stub-meta-history2.xml.gz.txt2021-07-01 18:09 76
[TXT]md5sums-dewiki-20210701-stub-meta-history3.xml.gz.txt2021-07-01 18:10 76
[TXT]md5sums-dewiki-20210701-stub-meta-history4.xml.gz.txt2021-07-01 18:11 76
[TXT]md5sums-dewiki-20210701-stub-meta-history5.xml.gz.txt2021-07-01 18:12 76
[TXT]md5sums-dewiki-20210701-stub-meta-history6.xml.gz.txt2021-07-01 18:13 76
[TXT]md5sums-dewiki-20210701-templatelinks.sql.gz.txt2021-07-01 18:52 71
[TXT]md5sums-dewiki-20210701-user_former_groups.sql.gz.txt2021-07-01 18:58 76
[TXT]md5sums-dewiki-20210701-user_groups.sql.gz.txt2021-07-01 18:57 69
[TXT]md5sums-dewiki-20210701-wbc_entity_usage.sql.gz.txt2021-07-01 20:54 74
[   ]pagerangeinfo.json2021-07-02 23:57 4.8K
[   ]report.json2021-07-04 13:48 68K
[TXT]sha1sums-dewiki-20210701-abstract.xml.gz.txt2021-07-02 23:11 74
[TXT]sha1sums-dewiki-20210701-abstract1.xml.gz.txt2021-07-02 23:11 75
[TXT]sha1sums-dewiki-20210701-abstract2.xml.gz.txt2021-07-02 23:11 75
[TXT]sha1sums-dewiki-20210701-abstract3.xml.gz.txt2021-07-02 23:11 75
[TXT]sha1sums-dewiki-20210701-abstract4.xml.gz.txt2021-07-02 23:11 75
[TXT]sha1sums-dewiki-20210701-abstract5.xml.gz.txt2021-07-02 23:11 75
[TXT]sha1sums-dewiki-20210701-abstract6.xml.gz.txt2021-07-02 23:11 75
[TXT]sha1sums-dewiki-20210701-all-titles-in-ns0.gz.txt2021-07-02 19:28 79
[TXT]sha1sums-dewiki-20210701-all-titles.gz.txt2021-07-02 19:28 72
[TXT]sha1sums-dewiki-20210701-babel.sql.gz.txt2021-07-01 20:54 71
[TXT]sha1sums-dewiki-20210701-category.sql.gz.txt2021-07-01 18:58 74
[TXT]sha1sums-dewiki-20210701-categorylinks.sql.gz.txt2021-07-01 18:49 79
[TXT]sha1sums-dewiki-20210701-change_tag.sql.gz.txt2021-07-01 19:04 76
[TXT]sha1sums-dewiki-20210701-change_tag_def.sql.gz.txt2021-07-01 19:05 80
[TXT]sha1sums-dewiki-20210701-externallinks.sql.gz.txt2021-07-01 18:56 79
[TXT]sha1sums-dewiki-20210701-flaggedimages.sql.gz.txt2021-07-01 20:13 79
[TXT]sha1sums-dewiki-20210701-flaggedpage_config.sql.gz.txt2021-07-01 20:13 84
[TXT]sha1sums-dewiki-20210701-flaggedpage_pending.sql.gz.txt2021-07-01 20:13 85
[TXT]sha1sums-dewiki-20210701-flaggedpages.sql.gz.txt2021-07-01 19:05 78
[TXT]sha1sums-dewiki-20210701-flaggedrevs.sql.gz.txt2021-07-01 19:11 77
[TXT]sha1sums-dewiki-20210701-flaggedrevs_promote.sql.gz.txt2021-07-01 20:14 85
[TXT]sha1sums-dewiki-20210701-flaggedrevs_statistics.sql.gz.txt2021-07-01 20:14 88
[TXT]sha1sums-dewiki-20210701-flaggedrevs_tracking.sql.gz.txt2021-07-01 20:14 86
[TXT]sha1sums-dewiki-20210701-flaggedtemplates.sql.gz.txt2021-07-01 20:53 82
[TXT]sha1sums-dewiki-20210701-geo_tags.sql.gz.txt2021-07-01 19:03 74
[TXT]sha1sums-dewiki-20210701-image.sql.gz.txt2021-07-01 18:41 71
[TXT]sha1sums-dewiki-20210701-imagelinks.sql.gz.txt2021-07-01 18:50 76
[TXT]sha1sums-dewiki-20210701-iwlinks.sql.gz.txt2021-07-01 19:03 73
[TXT]sha1sums-dewiki-20210701-langlinks.sql.gz.txt2021-07-01 18:57 75
[TXT]sha1sums-dewiki-20210701-page.sql.gz.txt2021-07-01 19:00 70
[TXT]sha1sums-dewiki-20210701-page_props.sql.gz.txt2021-07-01 19:01 76
[TXT]sha1sums-dewiki-20210701-page_restrictions.sql.gz.txt2021-07-01 19:00 83
[TXT]sha1sums-dewiki-20210701-pagelinks.sql.gz.txt2021-07-01 18:47 75
[TXT]sha1sums-dewiki-20210701-pages-articles-multistream-index.txt.bz2.txt2021-07-02 03:38 99
[TXT]sha1sums-dewiki-20210701-pages-articles-multistream-index1.txt-p1p297012.bz2.txt2021-07-02 03:20 110
[TXT]sha1sums-dewiki-20210701-pages-articles-multistream-index2.txt-p297013p1262093.bz2.txt2021-07-02 03:21 116
[TXT]sha1sums-dewiki-20210701-pages-articles-multistream-index3.txt-p1262094p2762093.bz2.txt2021-07-02 03:21 117
[TXT]sha1sums-dewiki-20210701-pages-articles-multistream-index3.txt-p2762094p3376257.bz2.txt2021-07-02 03:21 117
[TXT]sha1sums-dewiki-20210701-pages-articles-multistream-index4.txt-p3376258p4876257.bz2.txt2021-07-02 03:22 117
[TXT]sha1sums-dewiki-20210701-pages-articles-multistream-index4.txt-p4876258p6115464.bz2.txt2021-07-02 03:22 117
[TXT]sha1sums-dewiki-20210701-pages-articles-multistream-index5.txt-p6115465p7615464.bz2.txt2021-07-02 03:22 117
[TXT]sha1sums-dewiki-20210701-pages-articles-multistream-index5.txt-p7615465p9115464.bz2.txt2021-07-02 03:23 117
[TXT]sha1sums-dewiki-20210701-pages-articles-multistream-index5.txt-p9115465p9261244.bz2.txt2021-07-02 03:23 117
[TXT]sha1sums-dewiki-20210701-pages-articles-multistream-index6.txt-p9261245p10761244.bz2.txt2021-07-02 03:23 118
[TXT]sha1sums-dewiki-20210701-pages-articles-multistream-index6.txt-p10761245p11838254.bz2.txt2021-07-02 03:23 119
[TXT]sha1sums-dewiki-20210701-pages-articles-multistream.xml.bz2.txt2021-07-02 03:38 93
[TXT]sha1sums-dewiki-20210701-pages-articles-multistream1.xml-p1p297012.bz2.txt2021-07-02 03:20 104
[TXT]sha1sums-dewiki-20210701-pages-articles-multistream2.xml-p297013p1262093.bz2.txt2021-07-02 03:21 110
[TXT]sha1sums-dewiki-20210701-pages-articles-multistream3.xml-p1262094p2762093.bz2.txt2021-07-02 03:21 111
[TXT]sha1sums-dewiki-20210701-pages-articles-multistream3.xml-p2762094p3376257.bz2.txt2021-07-02 03:21 111
[TXT]sha1sums-dewiki-20210701-pages-articles-multistream4.xml-p3376258p4876257.bz2.txt2021-07-02 03:22 111
[TXT]sha1sums-dewiki-20210701-pages-articles-multistream4.xml-p4876258p6115464.bz2.txt2021-07-02 03:22 111
[TXT]sha1sums-dewiki-20210701-pages-articles-multistream5.xml-p6115465p7615464.bz2.txt2021-07-02 03:22 111
[TXT]sha1sums-dewiki-20210701-pages-articles-multistream5.xml-p7615465p9115464.bz2.txt2021-07-02 03:23 111
[TXT]sha1sums-dewiki-20210701-pages-articles-multistream5.xml-p9115465p9261244.bz2.txt2021-07-02 03:23 111
[TXT]sha1sums-dewiki-20210701-pages-articles-multistream6.xml-p9261245p10761244.bz2.txt2021-07-02 03:23 112
[TXT]sha1sums-dewiki-20210701-pages-articles-multistream6.xml-p10761245p11838254.bz2.txt2021-07-02 03:23 113
[TXT]sha1sums-dewiki-20210701-pages-articles.xml.bz2.txt2021-07-01 22:48 81
[TXT]sha1sums-dewiki-20210701-pages-articles1.xml-p1p297012.bz2.txt2021-07-01 22:13 92
[TXT]sha1sums-dewiki-20210701-pages-articles2.xml-p297013p1262093.bz2.txt2021-07-01 22:14 98
[TXT]sha1sums-dewiki-20210701-pages-articles3.xml-p1262094p2762093.bz2.txt2021-07-01 22:14 99
[TXT]sha1sums-dewiki-20210701-pages-articles3.xml-p2762094p3376257.bz2.txt2021-07-01 22:14 99
[TXT]sha1sums-dewiki-20210701-pages-articles4.xml-p3376258p4876257.bz2.txt2021-07-01 22:14 99
[TXT]sha1sums-dewiki-20210701-pages-articles4.xml-p4876258p6115464.bz2.txt2021-07-01 22:15 99
[TXT]sha1sums-dewiki-20210701-pages-articles5.xml-p6115465p7615464.bz2.txt2021-07-01 22:15 99
[TXT]sha1sums-dewiki-20210701-pages-articles5.xml-p7615465p9115464.bz2.txt2021-07-01 22:15 99
[TXT]sha1sums-dewiki-20210701-pages-articles5.xml-p9115465p9261244.bz2.txt2021-07-01 22:15 99
[TXT]sha1sums-dewiki-20210701-pages-articles6.xml-p9261245p10761244.bz2.txt2021-07-01 22:16 100
[TXT]sha1sums-dewiki-20210701-pages-articles6.xml-p10761245p11838254.bz2.txt2021-07-01 22:16 101
[TXT]sha1sums-dewiki-20210701-pages-logging.xml.gz.txt2021-07-02 23:42 79
[TXT]sha1sums-dewiki-20210701-pages-logging1.xml.gz.txt2021-07-02 23:37 80
[TXT]sha1sums-dewiki-20210701-pages-logging2.xml.gz.txt2021-07-02 23:38 80
[TXT]sha1sums-dewiki-20210701-pages-logging3.xml.gz.txt2021-07-02 23:38 80
[TXT]sha1sums-dewiki-20210701-pages-logging4.xml.gz.txt2021-07-02 23:38 80
[TXT]sha1sums-dewiki-20210701-pages-logging5.xml.gz.txt2021-07-02 23:39 80
[TXT]sha1sums-dewiki-20210701-pages-logging6.xml.gz.txt2021-07-02 23:39 80
[TXT]sha1sums-dewiki-20210701-pages-meta-current.xml.bz2.txt2021-07-02 10:22 85
[TXT]sha1sums-dewiki-20210701-pages-meta-current1.xml-p1p297012.bz2.txt2021-07-02 09:36 96
[TXT]sha1sums-dewiki-20210701-pages-meta-current2.xml-p297013p1262093.bz2.txt2021-07-02 09:36 102
[TXT]sha1sums-dewiki-20210701-pages-meta-current3.xml-p1262094p2762093.bz2.txt2021-07-02 09:36 103
[TXT]sha1sums-dewiki-20210701-pages-meta-current3.xml-p2762094p3376257.bz2.txt2021-07-02 09:37 103
[TXT]sha1sums-dewiki-20210701-pages-meta-current4.xml-p3376258p4876257.bz2.txt2021-07-02 09:37 103
[TXT]sha1sums-dewiki-20210701-pages-meta-current4.xml-p4876258p6115464.bz2.txt2021-07-02 09:37 103
[TXT]sha1sums-dewiki-20210701-pages-meta-current5.xml-p6115465p7615464.bz2.txt2021-07-02 09:38 103
[TXT]sha1sums-dewiki-20210701-pages-meta-current5.xml-p7615465p9115464.bz2.txt2021-07-02 09:39 103
[TXT]sha1sums-dewiki-20210701-pages-meta-current5.xml-p9115465p9261244.bz2.txt2021-07-02 09:39 103
[TXT]sha1sums-dewiki-20210701-pages-meta-current6.xml-p9261245p10761244.bz2.txt2021-07-02 09:39 104
[TXT]sha1sums-dewiki-20210701-pages-meta-current6.xml-p10761245p11838255.bz2.txt2021-07-02 09:40 105
[TXT]sha1sums-dewiki-20210701-pages-meta-history1.xml-p1p1613.7z.txt2021-07-04 13:26 93
[TXT]sha1sums-dewiki-20210701-pages-meta-history1.xml-p1p1613.bz2.txt2021-07-04 01:54 94
[TXT]sha1sums-dewiki-20210701-pages-meta-history1.xml-p1614p3287.7z.txt2021-07-04 13:26 96
[TXT]sha1sums-dewiki-20210701-pages-meta-history1.xml-p1614p3287.bz2.txt2021-07-04 01:55 97
[TXT]sha1sums-dewiki-20210701-pages-meta-history1.xml-p3288p5269.7z.txt2021-07-04 13:26 96
[TXT]sha1sums-dewiki-20210701-pages-meta-history1.xml-p3288p5269.bz2.txt2021-07-04 01:56 97
[TXT]sha1sums-dewiki-20210701-pages-meta-history1.xml-p5270p6254.7z.txt2021-07-04 13:26 96
[TXT]sha1sums-dewiki-20210701-pages-meta-history1.xml-p5270p6254.bz2.txt2021-07-04 01:56 97
[TXT]sha1sums-dewiki-20210701-pages-meta-history1.xml-p6255p9313.7z.txt2021-07-04 13:26 96
[TXT]sha1sums-dewiki-20210701-pages-meta-history1.xml-p6255p9313.bz2.txt2021-07-04 01:57 97
[TXT]sha1sums-dewiki-20210701-pages-meta-history1.xml-p9314p12184.7z.txt2021-07-04 13:26 97
[TXT]sha1sums-dewiki-20210701-pages-meta-history1.xml-p9314p12184.bz2.txt2021-07-04 01:59 98
[TXT]sha1sums-dewiki-20210701-pages-meta-history1.xml-p12185p15377.7z.txt2021-07-04 13:26 98
[TXT]sha1sums-dewiki-20210701-pages-meta-history1.xml-p12185p15377.bz2.txt2021-07-04 02:00 99
[TXT]sha1sums-dewiki-20210701-pages-meta-history1.xml-p15378p18479.7z.txt2021-07-04 13:26 98
[TXT]sha1sums-dewiki-20210701-pages-meta-history1.xml-p15378p18479.bz2.txt2021-07-04 02:01 99
[TXT]sha1sums-dewiki-20210701-pages-meta-history1.xml-p18480p23148.7z.txt2021-07-04 13:26 98
[TXT]sha1sums-dewiki-20210701-pages-meta-history1.xml-p18480p23148.bz2.txt2021-07-04 02:03 99
[TXT]sha1sums-dewiki-20210701-pages-meta-history1.xml-p23149p30116.7z.txt2021-07-04 13:27 98
[TXT]sha1sums-dewiki-20210701-pages-meta-history1.xml-p23149p30116.bz2.txt2021-07-04 02:04 99
[TXT]sha1sums-dewiki-20210701-pages-meta-history1.xml-p30117p35304.7z.txt2021-07-04 13:27 98
[TXT]sha1sums-dewiki-20210701-pages-meta-history1.xml-p30117p35304.bz2.txt2021-07-04 02:05 99
[TXT]sha1sums-dewiki-20210701-pages-meta-history1.xml-p35305p43317.7z.txt2021-07-04 13:27 98
[TXT]sha1sums-dewiki-20210701-pages-meta-history1.xml-p35305p43317.bz2.txt2021-07-04 02:06 99
[TXT]sha1sums-dewiki-20210701-pages-meta-history1.xml-p43318p51144.7z.txt2021-07-04 13:27 98
[TXT]sha1sums-dewiki-20210701-pages-meta-history1.xml-p43318p51144.bz2.txt2021-07-04 02:07 99
[TXT]sha1sums-dewiki-20210701-pages-meta-history1.xml-p51145p60034.7z.txt2021-07-04 13:27 98
[TXT]sha1sums-dewiki-20210701-pages-meta-history1.xml-p51145p60034.bz2.txt2021-07-04 02:08 99
[TXT]sha1sums-dewiki-20210701-pages-meta-history1.xml-p60035p71891.7z.txt2021-07-04 13:27 98
[TXT]sha1sums-dewiki-20210701-pages-meta-history1.xml-p60035p71891.bz2.txt2021-07-04 02:10 99
[TXT]sha1sums-dewiki-20210701-pages-meta-history1.xml-p71892p82254.7z.txt2021-07-04 13:27 98
[TXT]sha1sums-dewiki-20210701-pages-meta-history1.xml-p71892p82254.bz2.txt2021-07-04 02:11 99
[TXT]sha1sums-dewiki-20210701-pages-meta-history1.xml-p82255p95110.7z.txt2021-07-04 13:27 98
[TXT]sha1sums-dewiki-20210701-pages-meta-history1.xml-p82255p95110.bz2.txt2021-07-04 02:12 99
[TXT]sha1sums-dewiki-20210701-pages-meta-history1.xml-p95111p108953.7z.txt2021-07-04 13:27 99
[TXT]sha1sums-dewiki-20210701-pages-meta-history1.xml-p95111p108953.bz2.txt2021-07-04 02:13 100
[TXT]sha1sums-dewiki-20210701-pages-meta-history1.xml-p108954p124391.7z.txt2021-07-04 13:28 100
[TXT]sha1sums-dewiki-20210701-pages-meta-history1.xml-p108954p124391.bz2.txt2021-07-04 02:13 101
[TXT]sha1sums-dewiki-20210701-pages-meta-history1.xml-p124392p139248.7z.txt2021-07-04 13:28 100
[TXT]sha1sums-dewiki-20210701-pages-meta-history1.xml-p124392p139248.bz2.txt2021-07-04 02:14 101
[TXT]sha1sums-dewiki-20210701-pages-meta-history1.xml-p139249p155102.7z.txt2021-07-04 13:28 100
[TXT]sha1sums-dewiki-20210701-pages-meta-history1.xml-p139249p155102.bz2.txt2021-07-04 02:15 101
[TXT]sha1sums-dewiki-20210701-pages-meta-history1.xml-p155103p172183.7z.txt2021-07-04 13:28 100
[TXT]sha1sums-dewiki-20210701-pages-meta-history1.xml-p155103p172183.bz2.txt2021-07-04 02:16 101
[TXT]sha1sums-dewiki-20210701-pages-meta-history1.xml-p172184p191826.7z.txt2021-07-04 13:28 100
[TXT]sha1sums-dewiki-20210701-pages-meta-history1.xml-p172184p191826.bz2.txt2021-07-04 02:17 101
[TXT]sha1sums-dewiki-20210701-pages-meta-history1.xml-p191827p212610.7z.txt2021-07-04 13:28 100
[TXT]sha1sums-dewiki-20210701-pages-meta-history1.xml-p191827p212610.bz2.txt2021-07-04 02:18 101
[TXT]sha1sums-dewiki-20210701-pages-meta-history1.xml-p212611p234319.7z.txt2021-07-04 13:28 100
[TXT]sha1sums-dewiki-20210701-pages-meta-history1.xml-p212611p234319.bz2.txt2021-07-04 02:18 101
[TXT]sha1sums-dewiki-20210701-pages-meta-history1.xml-p234320p257639.7z.txt2021-07-04 13:28 100
[TXT]sha1sums-dewiki-20210701-pages-meta-history1.xml-p234320p257639.bz2.txt2021-07-04 02:19 101
[TXT]sha1sums-dewiki-20210701-pages-meta-history1.xml-p257640p281911.7z.txt2021-07-04 13:28 100
[TXT]sha1sums-dewiki-20210701-pages-meta-history1.xml-p257640p281911.bz2.txt2021-07-04 02:20 101
[TXT]sha1sums-dewiki-20210701-pages-meta-history1.xml-p281912p297012.7z.txt2021-07-04 13:29 100
[TXT]sha1sums-dewiki-20210701-pages-meta-history1.xml-p281912p297012.bz2.txt2021-07-04 02:20 101
[TXT]sha1sums-dewiki-20210701-pages-meta-history2.xml-p297013p323683.7z.txt2021-07-04 13:29 100
[TXT]sha1sums-dewiki-20210701-pages-meta-history2.xml-p297013p323683.bz2.txt2021-07-04 02:21 101
[TXT]sha1sums-dewiki-20210701-pages-meta-history2.xml-p323684p350754.7z.txt2021-07-04 13:29 100
[TXT]sha1sums-dewiki-20210701-pages-meta-history2.xml-p323684p350754.bz2.txt2021-07-04 02:22 101
[TXT]sha1sums-dewiki-20210701-pages-meta-history2.xml-p350755p381093.7z.txt2021-07-04 13:29 100
[TXT]sha1sums-dewiki-20210701-pages-meta-history2.xml-p350755p381093.bz2.txt2021-07-04 02:22 101
[TXT]sha1sums-dewiki-20210701-pages-meta-history2.xml-p381094p413698.7z.txt2021-07-04 13:29 100
[TXT]sha1sums-dewiki-20210701-pages-meta-history2.xml-p381094p413698.bz2.txt2021-07-04 02:23 101
[TXT]sha1sums-dewiki-20210701-pages-meta-history2.xml-p413699p446258.7z.txt2021-07-04 13:29 100
[TXT]sha1sums-dewiki-20210701-pages-meta-history2.xml-p413699p446258.bz2.txt2021-07-04 02:23 101
[TXT]sha1sums-dewiki-20210701-pages-meta-history2.xml-p446259p475180.7z.txt2021-07-04 13:29 100
[TXT]sha1sums-dewiki-20210701-pages-meta-history2.xml-p446259p475180.bz2.txt2021-07-04 02:24 101
[TXT]sha1sums-dewiki-20210701-pages-meta-history2.xml-p475181p505423.7z.txt2021-07-04 13:29 100
[TXT]sha1sums-dewiki-20210701-pages-meta-history2.xml-p475181p505423.bz2.txt2021-07-04 02:25 101
[TXT]sha1sums-dewiki-20210701-pages-meta-history2.xml-p505424p545928.7z.txt2021-07-04 13:29 100
[TXT]sha1sums-dewiki-20210701-pages-meta-history2.xml-p505424p545928.bz2.txt2021-07-04 02:26 101
[TXT]sha1sums-dewiki-20210701-pages-meta-history2.xml-p545929p586723.7z.txt2021-07-04 13:30 100
[TXT]sha1sums-dewiki-20210701-pages-meta-history2.xml-p545929p586723.bz2.txt2021-07-04 02:26 101
[TXT]sha1sums-dewiki-20210701-pages-meta-history2.xml-p586724p624126.7z.txt2021-07-04 13:30 100
[TXT]sha1sums-dewiki-20210701-pages-meta-history2.xml-p586724p624126.bz2.txt2021-07-04 02:27 101
[TXT]sha1sums-dewiki-20210701-pages-meta-history2.xml-p624127p668715.7z.txt2021-07-04 13:30 100
[TXT]sha1sums-dewiki-20210701-pages-meta-history2.xml-p624127p668715.bz2.txt2021-07-04 02:28 101
[TXT]sha1sums-dewiki-20210701-pages-meta-history2.xml-p668716p700153.7z.txt2021-07-04 13:30 100
[TXT]sha1sums-dewiki-20210701-pages-meta-history2.xml-p668716p700153.bz2.txt2021-07-04 02:29 101
[TXT]sha1sums-dewiki-20210701-pages-meta-history2.xml-p700154p737474.7z.txt2021-07-04 13:30 100
[TXT]sha1sums-dewiki-20210701-pages-meta-history2.xml-p700154p737474.bz2.txt2021-07-04 02:30 101
[TXT]sha1sums-dewiki-20210701-pages-meta-history2.xml-p737475p779952.7z.txt2021-07-04 13:30 100
[TXT]sha1sums-dewiki-20210701-pages-meta-history2.xml-p737475p779952.bz2.txt2021-07-04 02:31 101
[TXT]sha1sums-dewiki-20210701-pages-meta-history2.xml-p779953p823086.7z.txt2021-07-04 13:30 100
[TXT]sha1sums-dewiki-20210701-pages-meta-history2.xml-p779953p823086.bz2.txt2021-07-04 02:32 101
[TXT]sha1sums-dewiki-20210701-pages-meta-history2.xml-p823087p863796.7z.txt2021-07-04 13:30 100
[TXT]sha1sums-dewiki-20210701-pages-meta-history2.xml-p823087p863796.bz2.txt2021-07-04 02:33 101
[TXT]sha1sums-dewiki-20210701-pages-meta-history2.xml-p863797p911660.7z.txt2021-07-04 13:30 100
[TXT]sha1sums-dewiki-20210701-pages-meta-history2.xml-p863797p911660.bz2.txt2021-07-04 02:34 101
[TXT]sha1sums-dewiki-20210701-pages-meta-history2.xml-p911661p964752.7z.txt2021-07-04 13:31 100
[TXT]sha1sums-dewiki-20210701-pages-meta-history2.xml-p911661p964752.bz2.txt2021-07-04 02:35 101
[TXT]sha1sums-dewiki-20210701-pages-meta-history2.xml-p964753p1012527.7z.txt2021-07-04 13:31 101
[TXT]sha1sums-dewiki-20210701-pages-meta-history2.xml-p964753p1012527.bz2.txt2021-07-04 02:35 102
[TXT]sha1sums-dewiki-20210701-pages-meta-history2.xml-p1012528p1064200.7z.txt2021-07-04 13:31 102
[TXT]sha1sums-dewiki-20210701-pages-meta-history2.xml-p1012528p1064200.bz2.txt2021-07-04 02:36 103
[TXT]sha1sums-dewiki-20210701-pages-meta-history2.xml-p1064201p1127599.7z.txt2021-07-04 13:31 102
[TXT]sha1sums-dewiki-20210701-pages-meta-history2.xml-p1064201p1127599.bz2.txt2021-07-04 02:37 103
[TXT]sha1sums-dewiki-20210701-pages-meta-history2.xml-p1127600p1183907.7z.txt2021-07-04 13:31 102
[TXT]sha1sums-dewiki-20210701-pages-meta-history2.xml-p1127600p1183907.bz2.txt2021-07-04 02:38 103
[TXT]sha1sums-dewiki-20210701-pages-meta-history2.xml-p1183908p1242051.7z.txt2021-07-04 13:31 102
[TXT]sha1sums-dewiki-20210701-pages-meta-history2.xml-p1183908p1242051.bz2.txt2021-07-04 02:40 103
[TXT]sha1sums-dewiki-20210701-pages-meta-history2.xml-p1242052p1262093.7z.txt2021-07-04 13:31 102
[TXT]sha1sums-dewiki-20210701-pages-meta-history2.xml-p1242052p1262093.bz2.txt2021-07-04 02:40 103
[TXT]sha1sums-dewiki-20210701-pages-meta-history3.xml-p1262094p1322522.7z.txt2021-07-04 13:31 102
[TXT]sha1sums-dewiki-20210701-pages-meta-history3.xml-p1262094p1322522.bz2.txt2021-07-04 02:41 103
[TXT]sha1sums-dewiki-20210701-pages-meta-history3.xml-p1322523p1384392.7z.txt2021-07-04 13:32 102
[TXT]sha1sums-dewiki-20210701-pages-meta-history3.xml-p1322523p1384392.bz2.txt2021-07-04 02:42 103
[TXT]sha1sums-dewiki-20210701-pages-meta-history3.xml-p1384393p1448510.7z.txt2021-07-04 13:32 102
[TXT]sha1sums-dewiki-20210701-pages-meta-history3.xml-p1384393p1448510.bz2.txt2021-07-04 02:43 103
[TXT]sha1sums-dewiki-20210701-pages-meta-history3.xml-p1448511p1519304.7z.txt2021-07-04 13:32 102
[TXT]sha1sums-dewiki-20210701-pages-meta-history3.xml-p1448511p1519304.bz2.txt2021-07-04 02:44 103
[TXT]sha1sums-dewiki-20210701-pages-meta-history3.xml-p1519305p1591506.7z.txt2021-07-04 13:32 102
[TXT]sha1sums-dewiki-20210701-pages-meta-history3.xml-p1519305p1591506.bz2.txt2021-07-04 02:45 103
[TXT]sha1sums-dewiki-20210701-pages-meta-history3.xml-p1591507p1661627.7z.txt2021-07-04 13:32 102
[TXT]sha1sums-dewiki-20210701-pages-meta-history3.xml-p1591507p1661627.bz2.txt2021-07-04 02:46 103
[TXT]sha1sums-dewiki-20210701-pages-meta-history3.xml-p1661628p1729807.7z.txt2021-07-04 13:32 102
[TXT]sha1sums-dewiki-20210701-pages-meta-history3.xml-p1661628p1729807.bz2.txt2021-07-04 02:47 103
[TXT]sha1sums-dewiki-20210701-pages-meta-history3.xml-p1729808p1804501.7z.txt2021-07-04 13:32 102
[TXT]sha1sums-dewiki-20210701-pages-meta-history3.xml-p1729808p1804501.bz2.txt2021-07-04 02:48 103
[TXT]sha1sums-dewiki-20210701-pages-meta-history3.xml-p1804502p1884034.7z.txt2021-07-04 13:32 102
[TXT]sha1sums-dewiki-20210701-pages-meta-history3.xml-p1804502p1884034.bz2.txt2021-07-04 02:48 103
[TXT]sha1sums-dewiki-20210701-pages-meta-history3.xml-p1884035p1968311.7z.txt2021-07-04 13:33 102
[TXT]sha1sums-dewiki-20210701-pages-meta-history3.xml-p1884035p1968311.bz2.txt2021-07-04 02:50 103
[TXT]sha1sums-dewiki-20210701-pages-meta-history3.xml-p1968312p2083034.7z.txt2021-07-04 13:33 102
[TXT]sha1sums-dewiki-20210701-pages-meta-history3.xml-p1968312p2083034.bz2.txt2021-07-04 02:50 103
[TXT]sha1sums-dewiki-20210701-pages-meta-history3.xml-p2083035p2170611.7z.txt2021-07-04 13:33 102
[TXT]sha1sums-dewiki-20210701-pages-meta-history3.xml-p2083035p2170611.bz2.txt2021-07-04 02:52 103
[TXT]sha1sums-dewiki-20210701-pages-meta-history3.xml-p2170612p2272194.7z.txt2021-07-04 13:33 102
[TXT]sha1sums-dewiki-20210701-pages-meta-history3.xml-p2170612p2272194.bz2.txt2021-07-04 02:53 103
[TXT]sha1sums-dewiki-20210701-pages-meta-history3.xml-p2272195p2381454.7z.txt2021-07-04 13:33 102
[TXT]sha1sums-dewiki-20210701-pages-meta-history3.xml-p2272195p2381454.bz2.txt2021-07-04 02:54 103
[TXT]sha1sums-dewiki-20210701-pages-meta-history3.xml-p2381455p2501100.7z.txt2021-07-04 13:33 102
[TXT]sha1sums-dewiki-20210701-pages-meta-history3.xml-p2381455p2501100.bz2.txt2021-07-04 02:55 103
[TXT]sha1sums-dewiki-20210701-pages-meta-history3.xml-p2501101p2595015.7z.txt2021-07-04 13:33 102
[TXT]sha1sums-dewiki-20210701-pages-meta-history3.xml-p2501101p2595015.bz2.txt2021-07-04 02:56 103
[TXT]sha1sums-dewiki-20210701-pages-meta-history3.xml-p2595016p2692005.7z.txt2021-07-04 13:34 102
[TXT]sha1sums-dewiki-20210701-pages-meta-history3.xml-p2595016p2692005.bz2.txt2021-07-04 02:58 103
[TXT]sha1sums-dewiki-20210701-pages-meta-history3.xml-p2692006p2782089.7z.txt2021-07-04 13:34 102
[TXT]sha1sums-dewiki-20210701-pages-meta-history3.xml-p2692006p2782089.bz2.txt2021-07-04 02:59 103
[TXT]sha1sums-dewiki-20210701-pages-meta-history3.xml-p2782090p2874951.7z.txt2021-07-04 13:34 102
[TXT]sha1sums-dewiki-20210701-pages-meta-history3.xml-p2782090p2874951.bz2.txt2021-07-04 03:00 103
[TXT]sha1sums-dewiki-20210701-pages-meta-history3.xml-p2874952p2982965.7z.txt2021-07-04 13:34 102
[TXT]sha1sums-dewiki-20210701-pages-meta-history3.xml-p2874952p2982965.bz2.txt2021-07-04 03:01 103
[TXT]sha1sums-dewiki-20210701-pages-meta-history3.xml-p2982966p3081766.7z.txt2021-07-04 13:34 102
[TXT]sha1sums-dewiki-20210701-pages-meta-history3.xml-p2982966p3081766.bz2.txt2021-07-04 03:03 103
[TXT]sha1sums-dewiki-20210701-pages-meta-history3.xml-p3081767p3175653.7z.txt2021-07-04 13:34 102
[TXT]sha1sums-dewiki-20210701-pages-meta-history3.xml-p3081767p3175653.bz2.txt2021-07-04 03:04 103
[TXT]sha1sums-dewiki-20210701-pages-meta-history3.xml-p3175654p3299223.7z.txt2021-07-04 13:35 102
[TXT]sha1sums-dewiki-20210701-pages-meta-history3.xml-p3175654p3299223.bz2.txt2021-07-04 03:05 103
[TXT]sha1sums-dewiki-20210701-pages-meta-history3.xml-p3299224p3376257.7z.txt2021-07-04 13:35 102
[TXT]sha1sums-dewiki-20210701-pages-meta-history3.xml-p3299224p3376257.bz2.txt2021-07-04 03:06 103
[TXT]sha1sums-dewiki-20210701-pages-meta-history4.xml-p3376258p3478905.7z.txt2021-07-04 13:35 102
[TXT]sha1sums-dewiki-20210701-pages-meta-history4.xml-p3376258p3478905.bz2.txt2021-07-04 03:07 103
[TXT]sha1sums-dewiki-20210701-pages-meta-history4.xml-p3478906p3593850.7z.txt2021-07-04 13:35 102
[TXT]sha1sums-dewiki-20210701-pages-meta-history4.xml-p3478906p3593850.bz2.txt2021-07-04 03:08 103
[TXT]sha1sums-dewiki-20210701-pages-meta-history4.xml-p3593851p3701519.7z.txt2021-07-04 13:35 102
[TXT]sha1sums-dewiki-20210701-pages-meta-history4.xml-p3593851p3701519.bz2.txt2021-07-04 03:09 103
[TXT]sha1sums-dewiki-20210701-pages-meta-history4.xml-p3701520p3806993.7z.txt2021-07-04 13:35 102
[TXT]sha1sums-dewiki-20210701-pages-meta-history4.xml-p3701520p3806993.bz2.txt2021-07-04 03:10 103
[TXT]sha1sums-dewiki-20210701-pages-meta-history4.xml-p3806994p3914584.7z.txt2021-07-04 13:35 102
[TXT]sha1sums-dewiki-20210701-pages-meta-history4.xml-p3806994p3914584.bz2.txt2021-07-04 03:12 103
[TXT]sha1sums-dewiki-20210701-pages-meta-history4.xml-p3914585p4039828.7z.txt2021-07-04 13:35 102
[TXT]sha1sums-dewiki-20210701-pages-meta-history4.xml-p3914585p4039828.bz2.txt2021-07-04 03:13 103
[TXT]sha1sums-dewiki-20210701-pages-meta-history4.xml-p4039829p4152097.7z.txt2021-07-04 13:36 102
[TXT]sha1sums-dewiki-20210701-pages-meta-history4.xml-p4039829p4152097.bz2.txt2021-07-04 03:14 103
[TXT]sha1sums-dewiki-20210701-pages-meta-history4.xml-p4152098p4267029.7z.txt2021-07-04 13:36 102
[TXT]sha1sums-dewiki-20210701-pages-meta-history4.xml-p4152098p4267029.bz2.txt2021-07-04 03:16 103
[TXT]sha1sums-dewiki-20210701-pages-meta-history4.xml-p4267030p4330230.7z.txt2021-07-04 13:36 102
[TXT]sha1sums-dewiki-20210701-pages-meta-history4.xml-p4267030p4330230.bz2.txt2021-07-04 03:18 103
[TXT]sha1sums-dewiki-20210701-pages-meta-history4.xml-p4330231p4390947.7z.txt2021-07-04 13:36 102
[TXT]sha1sums-dewiki-20210701-pages-meta-history4.xml-p4330231p4390947.bz2.txt2021-07-04 03:20 103
[TXT]sha1sums-dewiki-20210701-pages-meta-history4.xml-p4390948p4470208.7z.txt2021-07-04 13:36 102
[TXT]sha1sums-dewiki-20210701-pages-meta-history4.xml-p4390948p4470208.bz2.txt2021-07-04 03:22 103
[TXT]sha1sums-dewiki-20210701-pages-meta-history4.xml-p4470209p4570276.7z.txt2021-07-04 13:36 102
[TXT]sha1sums-dewiki-20210701-pages-meta-history4.xml-p4470209p4570276.bz2.txt2021-07-04 03:24 103
[TXT]sha1sums-dewiki-20210701-pages-meta-history4.xml-p4570277p4691098.7z.txt2021-07-04 13:37 102
[TXT]sha1sums-dewiki-20210701-pages-meta-history4.xml-p4570277p4691098.bz2.txt2021-07-04 03:26 103
[TXT]sha1sums-dewiki-20210701-pages-meta-history4.xml-p4691099p4802864.7z.txt2021-07-04 13:37 102
[TXT]sha1sums-dewiki-20210701-pages-meta-history4.xml-p4691099p4802864.bz2.txt2021-07-04 03:27 103
[TXT]sha1sums-dewiki-20210701-pages-meta-history4.xml-p4802865p4928438.7z.txt2021-07-04 13:37 102
[TXT]sha1sums-dewiki-20210701-pages-meta-history4.xml-p4802865p4928438.bz2.txt2021-07-04 03:29 103
[TXT]sha1sums-dewiki-20210701-pages-meta-history4.xml-p4928439p5022484.7z.txt2021-07-04 13:37 102
[TXT]sha1sums-dewiki-20210701-pages-meta-history4.xml-p4928439p5022484.bz2.txt2021-07-04 03:31 103
[TXT]sha1sums-dewiki-20210701-pages-meta-history4.xml-p5022485p5130574.7z.txt2021-07-04 13:37 102
[TXT]sha1sums-dewiki-20210701-pages-meta-history4.xml-p5022485p5130574.bz2.txt2021-07-04 03:32 103
[TXT]sha1sums-dewiki-20210701-pages-meta-history4.xml-p5130575p5268714.7z.txt2021-07-04 13:37 102
[TXT]sha1sums-dewiki-20210701-pages-meta-history4.xml-p5130575p5268714.bz2.txt2021-07-04 03:33 103
[TXT]sha1sums-dewiki-20210701-pages-meta-history4.xml-p5268715p5364557.7z.txt2021-07-04 13:37 102
[TXT]sha1sums-dewiki-20210701-pages-meta-history4.xml-p5268715p5364557.bz2.txt2021-07-04 03:35 103
[TXT]sha1sums-dewiki-20210701-pages-meta-history4.xml-p5364558p5478632.7z.txt2021-07-04 13:38 102
[TXT]sha1sums-dewiki-20210701-pages-meta-history4.xml-p5364558p5478632.bz2.txt2021-07-04 03:36 103
[TXT]sha1sums-dewiki-20210701-pages-meta-history4.xml-p5478633p5596344.7z.txt2021-07-04 13:38 102
[TXT]sha1sums-dewiki-20210701-pages-meta-history4.xml-p5478633p5596344.bz2.txt2021-07-04 03:38 103
[TXT]sha1sums-dewiki-20210701-pages-meta-history4.xml-p5596345p5722163.7z.txt2021-07-04 13:38 102
[TXT]sha1sums-dewiki-20210701-pages-meta-history4.xml-p5596345p5722163.bz2.txt2021-07-04 03:39 103
[TXT]sha1sums-dewiki-20210701-pages-meta-history4.xml-p5722164p5859506.7z.txt2021-07-04 13:38 102
[TXT]sha1sums-dewiki-20210701-pages-meta-history4.xml-p5722164p5859506.bz2.txt2021-07-04 03:41 103
[TXT]sha1sums-dewiki-20210701-pages-meta-history4.xml-p5859507p5958542.7z.txt2021-07-04 13:38 102
[TXT]sha1sums-dewiki-20210701-pages-meta-history4.xml-p5859507p5958542.bz2.txt2021-07-04 03:42 103
[TXT]sha1sums-dewiki-20210701-pages-meta-history4.xml-p5958543p6082328.7z.txt2021-07-04 13:38 102
[TXT]sha1sums-dewiki-20210701-pages-meta-history4.xml-p5958543p6082328.bz2.txt2021-07-04 03:43 103
[TXT]sha1sums-dewiki-20210701-pages-meta-history4.xml-p6082329p6115464.7z.txt2021-07-04 13:38 102
[TXT]sha1sums-dewiki-20210701-pages-meta-history4.xml-p6082329p6115464.bz2.txt2021-07-04 03:44 103
[TXT]sha1sums-dewiki-20210701-pages-meta-history5.xml-p6115465p6243951.7z.txt2021-07-04 13:39 102
[TXT]sha1sums-dewiki-20210701-pages-meta-history5.xml-p6115465p6243951.bz2.txt2021-07-04 03:45 103
[TXT]sha1sums-dewiki-20210701-pages-meta-history5.xml-p6243952p6336894.7z.txt2021-07-04 13:39 102
[TXT]sha1sums-dewiki-20210701-pages-meta-history5.xml-p6243952p6336894.bz2.txt2021-07-04 03:47 103
[TXT]sha1sums-dewiki-20210701-pages-meta-history5.xml-p6336895p6433791.7z.txt2021-07-04 13:39 102
[TXT]sha1sums-dewiki-20210701-pages-meta-history5.xml-p6336895p6433791.bz2.txt2021-07-04 03:49 103
[TXT]sha1sums-dewiki-20210701-pages-meta-history5.xml-p6433792p6529935.7z.txt2021-07-04 13:39 102
[TXT]sha1sums-dewiki-20210701-pages-meta-history5.xml-p6433792p6529935.bz2.txt2021-07-04 03:55 103
[TXT]sha1sums-dewiki-20210701-pages-meta-history5.xml-p6529936p6612040.7z.txt2021-07-04 13:39 102
[TXT]sha1sums-dewiki-20210701-pages-meta-history5.xml-p6529936p6612040.bz2.txt2021-07-04 03:58 103
[TXT]sha1sums-dewiki-20210701-pages-meta-history5.xml-p6612041p6678851.7z.txt2021-07-04 13:40 102
[TXT]sha1sums-dewiki-20210701-pages-meta-history5.xml-p6612041p6678851.bz2.txt2021-07-04 04:02 103
[TXT]sha1sums-dewiki-20210701-pages-meta-history5.xml-p6678852p6747532.7z.txt2021-07-04 13:40 102
[TXT]sha1sums-dewiki-20210701-pages-meta-history5.xml-p6678852p6747532.bz2.txt2021-07-04 04:04 103
[TXT]sha1sums-dewiki-20210701-pages-meta-history5.xml-p6747533p6864227.7z.txt2021-07-04 13:40 102
[TXT]sha1sums-dewiki-20210701-pages-meta-history5.xml-p6747533p6864227.bz2.txt2021-07-04 04:06 103
[TXT]sha1sums-dewiki-20210701-pages-meta-history5.xml-p6864228p6974528.7z.txt2021-07-04 13:40 102
[TXT]sha1sums-dewiki-20210701-pages-meta-history5.xml-p6864228p6974528.bz2.txt2021-07-04 04:07 103
[TXT]sha1sums-dewiki-20210701-pages-meta-history5.xml-p6974529p7046438.7z.txt2021-07-04 13:40 102
[TXT]sha1sums-dewiki-20210701-pages-meta-history5.xml-p6974529p7046438.bz2.txt2021-07-04 04:09 103
[TXT]sha1sums-dewiki-20210701-pages-meta-history5.xml-p7046439p7076405.7z.txt2021-07-04 13:40 102
[TXT]sha1sums-dewiki-20210701-pages-meta-history5.xml-p7046439p7076405.bz2.txt2021-07-04 04:16 103
[TXT]sha1sums-dewiki-20210701-pages-meta-history5.xml-p7076406p7165993.7z.txt2021-07-04 13:41 102
[TXT]sha1sums-dewiki-20210701-pages-meta-history5.xml-p7076406p7165993.bz2.txt2021-07-04 04:17 103
[TXT]sha1sums-dewiki-20210701-pages-meta-history5.xml-p7165994p7378970.7z.txt2021-07-04 13:41 102
[TXT]sha1sums-dewiki-20210701-pages-meta-history5.xml-p7165994p7378970.bz2.txt2021-07-04 04:18 103
[TXT]sha1sums-dewiki-20210701-pages-meta-history5.xml-p7378971p7517244.7z.txt2021-07-04 13:41 102
[TXT]sha1sums-dewiki-20210701-pages-meta-history5.xml-p7378971p7517244.bz2.txt2021-07-04 04:19 103
[TXT]sha1sums-dewiki-20210701-pages-meta-history5.xml-p7517245p7640638.7z.txt2021-07-04 13:41 102
[TXT]sha1sums-dewiki-20210701-pages-meta-history5.xml-p7517245p7640638.bz2.txt2021-07-04 04:21 103
[TXT]sha1sums-dewiki-20210701-pages-meta-history5.xml-p7640639p7756895.7z.txt2021-07-04 13:41 102
[TXT]sha1sums-dewiki-20210701-pages-meta-history5.xml-p7640639p7756895.bz2.txt2021-07-04 04:23 103
[TXT]sha1sums-dewiki-20210701-pages-meta-history5.xml-p7756896p7888743.7z.txt2021-07-04 13:41 102
[TXT]sha1sums-dewiki-20210701-pages-meta-history5.xml-p7756896p7888743.bz2.txt2021-07-04 04:25 103
[TXT]sha1sums-dewiki-20210701-pages-meta-history5.xml-p7888744p8028550.7z.txt2021-07-04 13:42 102
[TXT]sha1sums-dewiki-20210701-pages-meta-history5.xml-p7888744p8028550.bz2.txt2021-07-04 04:27 103
[TXT]sha1sums-dewiki-20210701-pages-meta-history5.xml-p8028551p8135170.7z.txt2021-07-04 13:42 102
[TXT]sha1sums-dewiki-20210701-pages-meta-history5.xml-p8028551p8135170.bz2.txt2021-07-04 04:29 103
[TXT]sha1sums-dewiki-20210701-pages-meta-history5.xml-p8135171p8269792.7z.txt2021-07-04 13:42 102
[TXT]sha1sums-dewiki-20210701-pages-meta-history5.xml-p8135171p8269792.bz2.txt2021-07-04 04:31 103
[TXT]sha1sums-dewiki-20210701-pages-meta-history5.xml-p8269793p8403654.7z.txt2021-07-04 13:42 102
[TXT]sha1sums-dewiki-20210701-pages-meta-history5.xml-p8269793p8403654.bz2.txt2021-07-04 04:32 103
[TXT]sha1sums-dewiki-20210701-pages-meta-history5.xml-p8403655p8534583.7z.txt2021-07-04 13:42 102
[TXT]sha1sums-dewiki-20210701-pages-meta-history5.xml-p8403655p8534583.bz2.txt2021-07-04 04:34 103
[TXT]sha1sums-dewiki-20210701-pages-meta-history5.xml-p8534584p8749927.7z.txt2021-07-04 13:42 102
[TXT]sha1sums-dewiki-20210701-pages-meta-history5.xml-p8534584p8749927.bz2.txt2021-07-04 04:35 103
[TXT]sha1sums-dewiki-20210701-pages-meta-history5.xml-p8749928p8893894.7z.txt2021-07-04 13:43 102
[TXT]sha1sums-dewiki-20210701-pages-meta-history5.xml-p8749928p8893894.bz2.txt2021-07-04 04:38 103
[TXT]sha1sums-dewiki-20210701-pages-meta-history5.xml-p8893895p9014821.7z.txt2021-07-04 13:43 102
[TXT]sha1sums-dewiki-20210701-pages-meta-history5.xml-p8893895p9014821.bz2.txt2021-07-04 04:40 103
[TXT]sha1sums-dewiki-20210701-pages-meta-history5.xml-p9014822p9082349.7z.txt2021-07-04 13:43 102
[TXT]sha1sums-dewiki-20210701-pages-meta-history5.xml-p9014822p9082349.bz2.txt2021-07-04 04:50 103
[TXT]sha1sums-dewiki-20210701-pages-meta-history5.xml-p9082350p9197170.7z.txt2021-07-04 13:43 102
[TXT]sha1sums-dewiki-20210701-pages-meta-history5.xml-p9082350p9197170.bz2.txt2021-07-04 04:53 103
[TXT]sha1sums-dewiki-20210701-pages-meta-history5.xml-p9197171p9261244.7z.txt2021-07-04 13:43 102
[TXT]sha1sums-dewiki-20210701-pages-meta-history5.xml-p9197171p9261244.bz2.txt2021-07-04 04:53 103
[TXT]sha1sums-dewiki-20210701-pages-meta-history6.xml-p9261245p9463056.7z.txt2021-07-04 13:44 102
[TXT]sha1sums-dewiki-20210701-pages-meta-history6.xml-p9261245p9463056.bz2.txt2021-07-04 04:55 103
[TXT]sha1sums-dewiki-20210701-pages-meta-history6.xml-p9463057p9607756.7z.txt2021-07-04 13:44 102
[TXT]sha1sums-dewiki-20210701-pages-meta-history6.xml-p9463057p9607756.bz2.txt2021-07-04 04:57 103
[TXT]sha1sums-dewiki-20210701-pages-meta-history6.xml-p9607757p9672913.7z.txt2021-07-04 13:44 102
[TXT]sha1sums-dewiki-20210701-pages-meta-history6.xml-p9607757p9672913.bz2.txt2021-07-04 04:59 103
[TXT]sha1sums-dewiki-20210701-pages-meta-history6.xml-p9672914p9745287.7z.txt2021-07-04 13:44 102
[TXT]sha1sums-dewiki-20210701-pages-meta-history6.xml-p9672914p9745287.bz2.txt2021-07-04 05:00 103
[TXT]sha1sums-dewiki-20210701-pages-meta-history6.xml-p9745288p9759931.7z.txt2021-07-04 13:44 102
[TXT]sha1sums-dewiki-20210701-pages-meta-history6.xml-p9745288p9759931.bz2.txt2021-07-04 05:03 103
[TXT]sha1sums-dewiki-20210701-pages-meta-history6.xml-p9759932p9931178.7z.txt2021-07-04 13:44 102
[TXT]sha1sums-dewiki-20210701-pages-meta-history6.xml-p9759932p9931178.bz2.txt2021-07-04 05:04 103
[TXT]sha1sums-dewiki-20210701-pages-meta-history6.xml-p9931179p9984638.7z.txt2021-07-04 13:45 102
[TXT]sha1sums-dewiki-20210701-pages-meta-history6.xml-p9931179p9984638.bz2.txt2021-07-04 05:06 103
[TXT]sha1sums-dewiki-20210701-pages-meta-history6.xml-p9984639p10083739.7z.txt2021-07-04 13:45 103
[TXT]sha1sums-dewiki-20210701-pages-meta-history6.xml-p9984639p10083739.bz2.txt2021-07-04 05:08 104
[TXT]sha1sums-dewiki-20210701-pages-meta-history6.xml-p10083740p10250073.7z.txt2021-07-04 13:45 104
[TXT]sha1sums-dewiki-20210701-pages-meta-history6.xml-p10083740p10250073.bz2.txt2021-07-04 05:09 105
[TXT]sha1sums-dewiki-20210701-pages-meta-history6.xml-p10250074p10305182.7z.txt2021-07-04 13:45 104
[TXT]sha1sums-dewiki-20210701-pages-meta-history6.xml-p10250074p10305182.bz2.txt2021-07-04 05:11 105
[TXT]sha1sums-dewiki-20210701-pages-meta-history6.xml-p10305183p10490763.7z.txt2021-07-04 13:46 104
[TXT]sha1sums-dewiki-20210701-pages-meta-history6.xml-p10305183p10490763.bz2.txt2021-07-04 05:13 105
[TXT]sha1sums-dewiki-20210701-pages-meta-history6.xml-p10490764p10685520.7z.txt2021-07-04 13:46 104
[TXT]sha1sums-dewiki-20210701-pages-meta-history6.xml-p10490764p10685520.bz2.txt2021-07-04 05:14 105
[TXT]sha1sums-dewiki-20210701-pages-meta-history6.xml-p10685521p10874013.7z.txt2021-07-04 13:46 104
[TXT]sha1sums-dewiki-20210701-pages-meta-history6.xml-p10685521p10874013.bz2.txt2021-07-04 05:16 105
[TXT]sha1sums-dewiki-20210701-pages-meta-history6.xml-p10874014p11087881.7z.txt2021-07-04 13:46 104
[TXT]sha1sums-dewiki-20210701-pages-meta-history6.xml-p10874014p11087881.bz2.txt2021-07-04 05:17 105
[TXT]sha1sums-dewiki-20210701-pages-meta-history6.xml-p11087882p11219904.7z.txt2021-07-04 13:46 104
[TXT]sha1sums-dewiki-20210701-pages-meta-history6.xml-p11087882p11219904.bz2.txt2021-07-04 05:20 105
[TXT]sha1sums-dewiki-20210701-pages-meta-history6.xml-p11219905p11293369.7z.txt2021-07-04 13:47 104
[TXT]sha1sums-dewiki-20210701-pages-meta-history6.xml-p11219905p11293369.bz2.txt2021-07-04 05:22 105
[TXT]sha1sums-dewiki-20210701-pages-meta-history6.xml-p11293370p11510229.7z.txt2021-07-04 13:47 104
[TXT]sha1sums-dewiki-20210701-pages-meta-history6.xml-p11293370p11510229.bz2.txt2021-07-04 05:23 105
[TXT]sha1sums-dewiki-20210701-pages-meta-history6.xml-p11510230p11685766.7z.txt2021-07-04 13:47 104
[TXT]sha1sums-dewiki-20210701-pages-meta-history6.xml-p11510230p11685766.bz2.txt2021-07-04 05:26 105
[TXT]sha1sums-dewiki-20210701-pages-meta-history6.xml-p11685767p11838255.7z.txt2021-07-04 13:47 104
[TXT]sha1sums-dewiki-20210701-pages-meta-history6.xml-p11685767p11838255.bz2.txt2021-07-04 05:27 105
[TXT]sha1sums-dewiki-20210701-protected_titles.sql.gz.txt2021-07-01 19:02 82
[TXT]sha1sums-dewiki-20210701-redirect.sql.gz.txt2021-07-01 19:02 74
[TXT]sha1sums-dewiki-20210701-site_stats.sql.gz.txt2021-07-01 18:41 76
[TXT]sha1sums-dewiki-20210701-siteinfo-namespaces.json.gz.txt2021-07-02 19:28 86
[TXT]sha1sums-dewiki-20210701-sites.sql.gz.txt2021-07-01 20:53 71
[TXT]sha1sums-dewiki-20210701-stub-articles.xml.gz.txt2021-07-01 18:28 79
[TXT]sha1sums-dewiki-20210701-stub-articles1.xml.gz.txt2021-07-01 18:14 80
[TXT]sha1sums-dewiki-20210701-stub-articles2.xml.gz.txt2021-07-01 18:14 80
[TXT]sha1sums-dewiki-20210701-stub-articles3.xml.gz.txt2021-07-01 18:14 80
[TXT]sha1sums-dewiki-20210701-stub-articles4.xml.gz.txt2021-07-01 18:14 80
[TXT]sha1sums-dewiki-20210701-stub-articles5.xml.gz.txt2021-07-01 18:14 80
[TXT]sha1sums-dewiki-20210701-stub-articles6.xml.gz.txt2021-07-01 18:14 80
[TXT]sha1sums-dewiki-20210701-stub-meta-current.xml.gz.txt2021-07-01 18:27 83
[TXT]sha1sums-dewiki-20210701-stub-meta-current1.xml.gz.txt2021-07-01 18:13 84
[TXT]sha1sums-dewiki-20210701-stub-meta-current2.xml.gz.txt2021-07-01 18:13 84
[TXT]sha1sums-dewiki-20210701-stub-meta-current3.xml.gz.txt2021-07-01 18:13 84
[TXT]sha1sums-dewiki-20210701-stub-meta-current4.xml.gz.txt2021-07-01 18:13 84
[TXT]sha1sums-dewiki-20210701-stub-meta-current5.xml.gz.txt2021-07-01 18:14 84
[TXT]sha1sums-dewiki-20210701-stub-meta-current6.xml.gz.txt2021-07-01 18:14 84
[TXT]sha1sums-dewiki-20210701-stub-meta-history.xml.gz.txt2021-07-01 18:27 83
[TXT]sha1sums-dewiki-20210701-stub-meta-history1.xml.gz.txt2021-07-01 18:08 84
[TXT]sha1sums-dewiki-20210701-stub-meta-history2.xml.gz.txt2021-07-01 18:10 84
[TXT]sha1sums-dewiki-20210701-stub-meta-history3.xml.gz.txt2021-07-01 18:11 84
[TXT]sha1sums-dewiki-20210701-stub-meta-history4.xml.gz.txt2021-07-01 18:12 84
[TXT]sha1sums-dewiki-20210701-stub-meta-history5.xml.gz.txt2021-07-01 18:12 84
[TXT]sha1sums-dewiki-20210701-stub-meta-history6.xml.gz.txt2021-07-01 18:13 84
[TXT]sha1sums-dewiki-20210701-templatelinks.sql.gz.txt2021-07-01 18:52 79
[TXT]sha1sums-dewiki-20210701-user_former_groups.sql.gz.txt2021-07-01 18:58 84
[TXT]sha1sums-dewiki-20210701-user_groups.sql.gz.txt2021-07-01 18:57 77
[TXT]sha1sums-dewiki-20210701-wbc_entity_usage.sql.gz.txt2021-07-01 20:54 82
[HTM]status.html2021-07-04 13:48 107
[   ]tableinfo.json2021-07-01 10:05 1.7K

Apache/2.4.46 (Unix) Server at ftp.acc.umu.se Port 443